<?xml version='1.0' encoding='UTF-8'?><gpx version="1.1" creator="JPX - https://github.com/jenetics/jpx" xmlns="http://www.topografix.com/GPX/1/1"><trk><trkseg><trkpt lat="45.0717038" lon="7.6849191"><ele>243.0</ele><time>2026-04-18T09:00:49.431Z</time></trkpt><trkpt lat="45.0717923" lon="7.6857911"><ele>243.0</ele><time>2026-04-18T09:00:51.979Z</time></trkpt><trkpt lat="45.0717926" lon="7.6858888"><ele>243.0</ele><time>2026-04-18T09:00:57.982Z</time></trkpt><trkpt lat="45.0718344" lon="7.6857007"><ele>243.0</ele><time>2026-04-18T09:06:49.976Z</time></trkpt><trkpt lat="45.0718717" lon="7.68562"><ele>243.0</ele><time>2026-04-18T09:06:54.988Z</time></trkpt><trkpt lat="45.0718117" lon="7.685572"><ele>243.0</ele><time>2026-04-18T09:07:00.989Z</time></trkpt><trkpt lat="45.0717715" lon="7.6854756"><ele>243.0</ele><time>2026-04-18T09:07:05.961Z</time></trkpt><trkpt lat="45.0717711" lon="7.6853808"><ele>243.0</ele><time>2026-04-18T09:07:11.977Z</time></trkpt><trkpt lat="45.0718072" lon="7.6852996"><ele>243.0</ele><time>2026-04-18T09:07:16.976Z</time></trkpt><trkpt lat="45.0718489" lon="7.6852089"><ele>243.0</ele><time>2026-04-18T09:07:20.998Z</time></trkpt><trkpt lat="45.0719006" lon="7.6851377"><ele>243.0</ele><time>2026-04-18T09:07:26.896Z</time></trkpt><trkpt lat="45.0719594" lon="7.6850698"><ele>243.0</ele><time>2026-04-18T09:07:32.263Z</time></trkpt><trkpt lat="45.0719951" lon="7.6849836"><ele>243.0</ele><time>2026-04-18T09:07:37.517Z</time></trkpt><trkpt lat="45.0719854" lon="7.684888"><ele>243.0</ele><time>2026-04-18T09:07:40.698Z</time></trkpt><trkpt lat="45.072" lon="7.6847876"><ele>244.28571428571428</ele><time>2026-04-18T09:07:44.989Z</time></trkpt><trkpt lat="45.0720204" lon="7.6847021"><ele>245.57142857142858</ele><time>2026-04-18T09:07:50.953Z</time></trkpt><trkpt lat="45.0720512" lon="7.6846118"><ele>246.85714285714286</ele><time>2026-04-18T09:07:57.999Z</time></trkpt><trkpt lat="45.0720931" lon="7.6845301"><ele>248.14285714285714</ele><time>2026-04-18T09:08:04.977Z</time></trkpt><trkpt lat="45.0721344" lon="7.6844453"><ele>249.42857142857144</ele><time>2026-04-18T09:08:10.051Z</time></trkpt><trkpt lat="45.0721714" lon="7.6843547"><ele>250.71428571428572</ele><time>2026-04-18T09:08:16.9Z</time></trkpt><trkpt lat="45.0721967" lon="7.6842546"><ele>252.0</ele><time>2026-04-18T09:08:22.941Z</time></trkpt><trkpt lat="45.0722226" lon="7.6841531"><ele>252.0</ele><time>2026-04-18T09:08:31.043Z</time></trkpt><trkpt lat="45.0722615" lon="7.6840758"><ele>252.0</ele><time>2026-04-18T09:08:34.989Z</time></trkpt><trkpt lat="45.0723292" lon="7.6840615"><ele>252.0</ele><time>2026-04-18T09:08:37.988Z</time></trkpt><trkpt lat="45.0723928" lon="7.6840773"><ele>252.0</ele><time>2026-04-18T09:08:44.897Z</time></trkpt><trkpt lat="45.0724744" lon="7.68407"><ele>252.0</ele><time>2026-04-18T09:08:55.096Z</time></trkpt><trkpt lat="45.0725341" lon="7.6841242"><ele>252.0</ele><time>2026-04-18T09:08:59.996Z</time></trkpt><trkpt lat="45.0725906" lon="7.6841838"><ele>252.0</ele><time>2026-04-18T09:09:03.99Z</time></trkpt><trkpt lat="45.072654" lon="7.6842311"><ele>252.14285714285714</ele><time>2026-04-18T09:09:08.976Z</time></trkpt><trkpt lat="45.0727153" lon="7.6842702"><ele>252.28571428571428</ele><time>2026-04-18T09:09:13.977Z</time></trkpt><trkpt lat="45.0727699" lon="7.6843192"><ele>252.42857142857144</ele><time>2026-04-18T09:09:18.977Z</time></trkpt><trkpt lat="45.0728317" lon="7.6843499"><ele>252.57142857142858</ele><time>2026-04-18T09:09:23.382Z</time></trkpt><trkpt lat="45.072895" lon="7.6843908"><ele>252.71428571428572</ele><time>2026-04-18T09:09:28.84Z</time></trkpt><trkpt lat="45.0729623" lon="7.6844384"><ele>252.8571428571429</ele><time>2026-04-18T09:09:34.976Z</time></trkpt><trkpt lat="45.0730305" lon="7.6844846"><ele>253.00000000000003</ele><time>2026-04-18T09:09:37.881Z</time></trkpt><trkpt lat="45.0730871" lon="7.684526"><ele>253.00000000000003</ele><time>2026-04-18T09:09:42.976Z</time></trkpt><trkpt lat="45.0731467" lon="7.6845572"><ele>253.0</ele><time>2026-04-18T09:09:50.955Z</time></trkpt><trkpt lat="45.0732101" lon="7.6845991"><ele>253.00000000000003</ele><time>2026-04-18T09:09:56.05Z</time></trkpt><trkpt lat="45.0732714" lon="7.6846336"><ele>253.00000000000003</ele><time>2026-04-18T09:10:03.032Z</time></trkpt><trkpt lat="45.0733269" lon="7.6846813"><ele>253.0</ele><time>2026-04-18T09:10:11.029Z</time></trkpt><trkpt lat="45.07339" lon="7.6847396"><ele>253.00000000000003</ele><time>2026-04-18T09:10:16.976Z</time></trkpt><trkpt lat="45.0734427" lon="7.6847958"><ele>253.00000000000003</ele><time>2026-04-18T09:10:23.977Z</time></trkpt><trkpt lat="45.0735007" lon="7.6848399"><ele>252.42857142857144</ele><time>2026-04-18T09:10:27.902Z</time></trkpt><trkpt lat="45.0735535" lon="7.6848894"><ele>251.85714285714286</ele><time>2026-04-18T09:10:32.977Z</time></trkpt><trkpt lat="45.0736213" lon="7.6849416"><ele>251.28571428571428</ele><time>2026-04-18T09:10:38.993Z</time></trkpt><trkpt lat="45.0736841" lon="7.6849927"><ele>250.71428571428572</ele><time>2026-04-18T09:10:47Z</time></trkpt><trkpt lat="45.0737455" lon="7.6850409"><ele>250.1428571428571</ele><time>2026-04-18T09:10:53.978Z</time></trkpt><trkpt lat="45.073811" lon="7.6850819"><ele>249.57142857142856</ele><time>2026-04-18T09:10:59.028Z</time></trkpt><trkpt lat="45.0738847" lon="7.6850922"><ele>249.0</ele><time>2026-04-18T09:11:02.976Z</time></trkpt><trkpt lat="45.073946" lon="7.6851309"><ele>249.0</ele><time>2026-04-18T09:11:09.156Z</time></trkpt><trkpt lat="45.0740027" lon="7.6851883"><ele>248.99999999999997</ele><time>2026-04-18T09:11:12.258Z</time></trkpt><trkpt lat="45.0740437" lon="7.685269"><ele>249.0</ele><time>2026-04-18T09:11:15.977Z</time></trkpt><trkpt lat="45.0740999" lon="7.6853365"><ele>249.0</ele><time>2026-04-18T09:11:21.038Z</time></trkpt><trkpt lat="45.0741734" lon="7.6853531"><ele>248.99999999999997</ele><time>2026-04-18T09:11:25.981Z</time></trkpt><trkpt lat="45.0742466" lon="7.6853859"><ele>249.0</ele><time>2026-04-18T09:11:30.977Z</time></trkpt><trkpt lat="45.0743128" lon="7.6854269"><ele>249.0</ele><time>2026-04-18T09:11:36.038Z</time></trkpt><trkpt lat="45.0743768" lon="7.6854804"><ele>248.42857142857142</ele><time>2026-04-18T09:11:41.977Z</time></trkpt><trkpt lat="45.0744505" lon="7.6855163"><ele>247.85714285714283</ele><time>2026-04-18T09:11:47.998Z</time></trkpt><trkpt lat="45.0745205" lon="7.6855389"><ele>247.28571428571428</ele><time>2026-04-18T09:11:52.052Z</time></trkpt><trkpt lat="45.0745825" lon="7.6855734"><ele>246.71428571428572</ele><time>2026-04-18T09:11:56.976Z</time></trkpt><trkpt lat="45.0746429" lon="7.6856158"><ele>246.14285714285714</ele><time>2026-04-18T09:12:01.037Z</time></trkpt><trkpt lat="45.0747043" lon="7.6856633"><ele>245.57142857142856</ele><time>2026-04-18T09:12:04.96Z</time></trkpt><trkpt lat="45.074763" lon="7.6857146"><ele>245.0</ele><time>2026-04-18T09:12:09.976Z</time></trkpt><trkpt lat="45.0748173" lon="7.6857792"><ele>245.0</ele><time>2026-04-18T09:12:14.976Z</time></trkpt><trkpt lat="45.0748819" lon="7.6858247"><ele>245.0</ele><time>2026-04-18T09:12:20.044Z</time></trkpt><trkpt lat="45.0749359" lon="7.6858855"><ele>245.0</ele><time>2026-04-18T09:12:25.997Z</time></trkpt><trkpt lat="45.0749932" lon="7.6859524"><ele>245.0</ele><time>2026-04-18T09:12:30.976Z</time></trkpt><trkpt lat="45.0750506" lon="7.6859931"><ele>245.0</ele><time>2026-04-18T09:12:36.042Z</time></trkpt><trkpt lat="45.0751177" lon="7.6859658"><ele>245.0</ele><time>2026-04-18T09:12:39.992Z</time></trkpt><trkpt lat="45.0751849" lon="7.6859747"><ele>245.0</ele><time>2026-04-18T09:12:44.058Z</time></trkpt><trkpt lat="45.0752671" lon="7.6860148"><ele>244.0</ele><time>2026-04-18T09:12:48.976Z</time></trkpt><trkpt lat="45.0753263" lon="7.6860836"><ele>243.0</ele><time>2026-04-18T09:12:52.977Z</time></trkpt><trkpt lat="45.0753854" lon="7.6861274"><ele>242.0</ele><time>2026-04-18T09:12:57.031Z</time></trkpt><trkpt lat="45.0754626" lon="7.6861445"><ele>241.0</ele><time>2026-04-18T09:13:02.062Z</time></trkpt><trkpt lat="45.0755234" lon="7.686174"><ele>240.0</ele><time>2026-04-18T09:13:05.954Z</time></trkpt><trkpt lat="45.0755737" lon="7.6862314"><ele>239.0</ele><time>2026-04-18T09:13:09.977Z</time></trkpt><trkpt lat="45.0756191" lon="7.686169"><ele>238.0</ele><time>2026-04-18T09:13:56.976Z</time></trkpt><trkpt lat="45.0756485" lon="7.6860895"><ele>238.0</ele><time>2026-04-18T09:13:59.977Z</time></trkpt><trkpt lat="45.0757097" lon="7.6860368"><ele>238.0</ele><time>2026-04-18T09:14:05.921Z</time></trkpt><trkpt lat="45.0756807" lon="7.6861264"><ele>238.0</ele><time>2026-04-18T09:14:32.976Z</time></trkpt><trkpt lat="45.075745" lon="7.6861803"><ele>238.0</ele><time>2026-04-18T09:14:55.914Z</time></trkpt><trkpt lat="45.0758113" lon="7.6861853"><ele>238.0</ele><time>2026-04-18T09:14:59.958Z</time></trkpt><trkpt lat="45.0758827" lon="7.686178"><ele>238.0</ele><time>2026-04-18T09:15:04.017Z</time></trkpt><trkpt lat="45.0759492" lon="7.6862211"><ele>238.0</ele><time>2026-04-18T09:15:07.982Z</time></trkpt><trkpt lat="45.0760118" lon="7.6862906"><ele>237.85714285714286</ele><time>2026-04-18T09:15:12.977Z</time></trkpt><trkpt lat="45.0760572" lon="7.6863628"><ele>237.71428571428572</ele><time>2026-04-18T09:15:17.977Z</time></trkpt><trkpt lat="45.0761175" lon="7.6864214"><ele>237.57142857142856</ele><time>2026-04-18T09:15:25.977Z</time></trkpt><trkpt lat="45.0761816" lon="7.6864598"><ele>237.42857142857142</ele><time>2026-04-18T09:15:30.961Z</time></trkpt><trkpt lat="45.0762499" lon="7.6864969"><ele>237.28571428571428</ele><time>2026-04-18T09:15:35.987Z</time></trkpt><trkpt lat="45.0763043" lon="7.6865483"><ele>237.1428571428571</ele><time>2026-04-18T09:15:39.98Z</time></trkpt><trkpt lat="45.0763732" lon="7.686577"><ele>236.99999999999997</ele><time>2026-04-18T09:15:45.977Z</time></trkpt><trkpt lat="45.0764356" lon="7.6866246"><ele>236.99999999999997</ele><time>2026-04-18T09:15:52Z</time></trkpt><trkpt lat="45.076513" lon="7.6866581"><ele>237.0</ele><time>2026-04-18T09:15:58.999Z</time></trkpt><trkpt lat="45.0765754" lon="7.6867039"><ele>236.99999999999997</ele><time>2026-04-18T09:16:03.976Z</time></trkpt><trkpt lat="45.076636" lon="7.6867673"><ele>236.99999999999997</ele><time>2026-04-18T09:16:09.023Z</time></trkpt><trkpt lat="45.0767089" lon="7.6868089"><ele>237.0</ele><time>2026-04-18T09:16:13.981Z</time></trkpt><trkpt lat="45.0767755" lon="7.6868299"><ele>236.99999999999997</ele><time>2026-04-18T09:16:19.976Z</time></trkpt><trkpt lat="45.0768439" lon="7.6868587"><ele>236.99999999999997</ele><time>2026-04-18T09:16:24.976Z</time></trkpt><trkpt lat="45.0769035" lon="7.6868897"><ele>237.1428571428571</ele><time>2026-04-18T09:16:29.901Z</time></trkpt><trkpt lat="45.0769667" lon="7.6869213"><ele>237.28571428571428</ele><time>2026-04-18T09:16:35.016Z</time></trkpt><trkpt lat="45.0770307" lon="7.6869545"><ele>237.42857142857142</ele><time>2026-04-18T09:16:44.977Z</time></trkpt><trkpt lat="45.0770962" lon="7.6869917"><ele>237.57142857142856</ele><time>2026-04-18T09:16:49.977Z</time></trkpt><trkpt lat="45.0771599" lon="7.6870385"><ele>237.71428571428572</ele><time>2026-04-18T09:16:53.977Z</time></trkpt><trkpt lat="45.0772231" lon="7.6870715"><ele>237.85714285714286</ele><time>2026-04-18T09:16:58.977Z</time></trkpt><trkpt lat="45.0772906" lon="7.687105"><ele>238.0</ele><time>2026-04-18T09:17:04.939Z</time></trkpt><trkpt lat="45.0773578" lon="7.6871378"><ele>238.0</ele><time>2026-04-18T09:17:09.976Z</time></trkpt><trkpt lat="45.0774266" lon="7.6871703"><ele>238.0</ele><time>2026-04-18T09:17:16.044Z</time></trkpt><trkpt lat="45.0774907" lon="7.6872016"><ele>238.0</ele><time>2026-04-18T09:17:22.92Z</time></trkpt><trkpt lat="45.0775586" lon="7.6872374"><ele>238.0</ele><time>2026-04-18T09:17:27.976Z</time></trkpt><trkpt lat="45.07762" lon="7.6872591"><ele>238.0</ele><time>2026-04-18T09:17:30.977Z</time></trkpt><trkpt lat="45.0776896" lon="7.6872429"><ele>238.0</ele><time>2026-04-18T09:17:36.986Z</time></trkpt><trkpt lat="45.0777536" lon="7.6872416"><ele>238.0</ele><time>2026-04-18T09:17:43.977Z</time></trkpt><trkpt lat="45.0778224" lon="7.6873034"><ele>237.57142857142856</ele><time>2026-04-18T09:17:45.977Z</time></trkpt><trkpt lat="45.0778782" lon="7.6873499"><ele>237.14285714285714</ele><time>2026-04-18T09:17:52.977Z</time></trkpt><trkpt lat="45.077954" lon="7.6873933"><ele>236.71428571428572</ele><time>2026-04-18T09:18:00.985Z</time></trkpt><trkpt lat="45.0780083" lon="7.6874613"><ele>236.28571428571428</ele><time>2026-04-18T09:18:10.051Z</time></trkpt><trkpt lat="45.078072" lon="7.6875175"><ele>235.85714285714283</ele><time>2026-04-18T09:18:15.977Z</time></trkpt><trkpt lat="45.0781334" lon="7.687549"><ele>235.42857142857142</ele><time>2026-04-18T09:18:21.977Z</time></trkpt><trkpt lat="45.0781953" lon="7.687585"><ele>235.0</ele><time>2026-04-18T09:18:25.977Z</time></trkpt><trkpt lat="45.0782677" lon="7.6876006"><ele>235.33333333333331</ele><time>2026-04-18T09:18:32.958Z</time></trkpt><trkpt lat="45.0783401" lon="7.687607"><ele>235.66666666666666</ele><time>2026-04-18T09:18:36.977Z</time></trkpt><trkpt lat="45.0784106" lon="7.6877142"><ele>236.0</ele><time>2026-04-18T09:18:39.988Z</time></trkpt><trkpt lat="45.0784779" lon="7.687752"><ele>236.33333333333331</ele><time>2026-04-18T09:18:45.022Z</time></trkpt><trkpt lat="45.0785468" lon="7.6878011"><ele>236.66666666666666</ele><time>2026-04-18T09:18:49.001Z</time></trkpt><trkpt lat="45.0786123" lon="7.6878302"><ele>237.0</ele><time>2026-04-18T09:18:53.984Z</time></trkpt><trkpt lat="45.0786706" lon="7.6878659"><ele>236.1428571428571</ele><time>2026-04-18T09:18:55.885Z</time></trkpt><trkpt lat="45.0787423" lon="7.6879079"><ele>235.28571428571428</ele><time>2026-04-18T09:19:01.989Z</time></trkpt><trkpt lat="45.0788156" lon="7.6879531"><ele>234.42857142857142</ele><time>2026-04-18T09:19:04.94Z</time></trkpt><trkpt lat="45.0788872" lon="7.6879984"><ele>233.57142857142856</ele><time>2026-04-18T09:19:10.977Z</time></trkpt><trkpt lat="45.0789539" lon="7.6880358"><ele>232.71428571428572</ele><time>2026-04-18T09:19:15.977Z</time></trkpt><trkpt lat="45.0790148" lon="7.6880685"><ele>231.85714285714286</ele><time>2026-04-18T09:19:21.977Z</time></trkpt><trkpt lat="45.0790804" lon="7.6880781"><ele>231.0</ele><time>2026-04-18T09:19:25.976Z</time></trkpt><trkpt lat="45.079149" lon="7.6880839"><ele>231.0</ele><time>2026-04-18T09:19:31.976Z</time></trkpt><trkpt lat="45.0791967" lon="7.687997"><ele>231.0</ele><time>2026-04-18T09:19:35.976Z</time></trkpt><trkpt lat="45.0792198" lon="7.6879133"><ele>231.0</ele><time>2026-04-18T09:19:38.976Z</time></trkpt><trkpt lat="45.0792605" lon="7.6878431"><ele>231.0</ele><time>2026-04-18T09:19:43.042Z</time></trkpt><trkpt lat="45.0793162" lon="7.6877827"><ele>231.0</ele><time>2026-04-18T09:19:48.017Z</time></trkpt><trkpt lat="45.0793269" lon="7.6878709"><ele>231.0</ele><time>2026-04-18T09:21:04.977Z</time></trkpt><trkpt lat="45.0793768" lon="7.6879425"><ele>231.0</ele><time>2026-04-18T09:21:08.977Z</time></trkpt><trkpt lat="45.0793957" lon="7.6880358"><ele>231.0</ele><time>2026-04-18T09:21:12.978Z</time></trkpt><trkpt lat="45.0794249" lon="7.6881502"><ele>231.0</ele><time>2026-04-18T09:21:16.977Z</time></trkpt><trkpt lat="45.0794521" lon="7.688254"><ele>231.0</ele><time>2026-04-18T09:21:21.977Z</time></trkpt><trkpt lat="45.079497" lon="7.6883274"><ele>231.0</ele><time>2026-04-18T09:21:26.044Z</time></trkpt><trkpt lat="45.0795835" lon="7.6883531"><ele>231.0</ele><time>2026-04-18T09:21:52.976Z</time></trkpt><trkpt lat="45.0796718" lon="7.6884035"><ele>231.0</ele><time>2026-04-18T09:22:21.976Z</time></trkpt><trkpt lat="45.0796908" lon="7.6884885"><ele>231.0</ele><time>2026-04-18T09:22:26.986Z</time></trkpt><trkpt lat="45.0797085" lon="7.6885808"><ele>231.0</ele><time>2026-04-18T09:22:31.052Z</time></trkpt><trkpt lat="45.0797217" lon="7.6886697"><ele>231.0</ele><time>2026-04-18T09:22:36.021Z</time></trkpt><trkpt lat="45.0797595" lon="7.6887519"><ele>231.0</ele><time>2026-04-18T09:22:41.976Z</time></trkpt><trkpt lat="45.0797355" lon="7.6888413"><ele>231.0</ele><time>2026-04-18T09:23:00.977Z</time></trkpt><trkpt lat="45.0797273" lon="7.688939"><ele>231.0</ele><time>2026-04-18T09:23:05.976Z</time></trkpt><trkpt lat="45.0797636" lon="7.6890459"><ele>231.0</ele><time>2026-04-18T09:23:44.977Z</time></trkpt><trkpt lat="45.0797066" lon="7.6890985"><ele>231.0</ele><time>2026-04-18T09:23:49.924Z</time></trkpt><trkpt lat="45.0796444" lon="7.6891564"><ele>231.0</ele><time>2026-04-18T09:23:53.976Z</time></trkpt><trkpt lat="45.0795878" lon="7.6892008"><ele>231.0</ele><time>2026-04-18T09:23:57.976Z</time></trkpt><trkpt lat="45.0795199" lon="7.6892401"><ele>231.0</ele><time>2026-04-18T09:24:03.993Z</time></trkpt><trkpt lat="45.0794574" lon="7.6892649"><ele>231.0</ele><time>2026-04-18T09:24:09.977Z</time></trkpt><trkpt lat="45.079397" lon="7.6892983"><ele>231.0</ele><time>2026-04-18T09:24:14.921Z</time></trkpt><trkpt lat="45.079337" lon="7.6893541"><ele>231.0</ele><time>2026-04-18T09:24:19.977Z</time></trkpt><trkpt lat="45.0792749" lon="7.6893916"><ele>231.0</ele><time>2026-04-18T09:24:24.029Z</time></trkpt><trkpt lat="45.0792083" lon="7.6894287"><ele>231.00000000000003</ele><time>2026-04-18T09:24:28.977Z</time></trkpt><trkpt lat="45.0791442" lon="7.68946"><ele>231.00000000000003</ele><time>2026-04-18T09:24:34.044Z</time></trkpt><trkpt lat="45.0790814" lon="7.6894669"><ele>231.0</ele><time>2026-04-18T09:24:39.977Z</time></trkpt><trkpt lat="45.0790032" lon="7.6894738"><ele>231.0</ele><time>2026-04-18T09:24:47.923Z</time></trkpt><trkpt lat="45.0792389" lon="7.6894124"><ele>231.0</ele><time>2026-04-18T09:24:50.014Z</time></trkpt><trkpt lat="45.0793166" lon="7.6893841"><ele>231.0</ele><time>2026-04-18T09:24:50.979Z</time></trkpt><trkpt lat="45.0793847" lon="7.6893262"><ele>231.0</ele><time>2026-04-18T09:24:54.977Z</time></trkpt><trkpt lat="45.0794475" lon="7.6893029"><ele>231.0</ele><time>2026-04-18T09:24:59.976Z</time></trkpt><trkpt lat="45.0795106" lon="7.6892897"><ele>231.0</ele><time>2026-04-18T09:25:04.977Z</time></trkpt><trkpt lat="45.0795656" lon="7.689347"><ele>231.0</ele><time>2026-04-18T09:25:09.933Z</time></trkpt><trkpt lat="45.0795896" lon="7.6894314"><ele>231.0</ele><time>2026-04-18T09:25:14.841Z</time></trkpt><trkpt lat="45.0796173" lon="7.6895181"><ele>230.57142857142856</ele><time>2026-04-18T09:25:19.976Z</time></trkpt><trkpt lat="45.079669" lon="7.6896094"><ele>230.14285714285714</ele><time>2026-04-18T09:25:24.938Z</time></trkpt><trkpt lat="45.0797051" lon="7.6896854"><ele>229.71428571428572</ele><time>2026-04-18T09:25:29.977Z</time></trkpt><trkpt lat="45.0797458" lon="7.6897687"><ele>229.28571428571428</ele><time>2026-04-18T09:25:35.977Z</time></trkpt><trkpt lat="45.0797799" lon="7.6898464"><ele>228.85714285714283</ele><time>2026-04-18T09:25:39.944Z</time></trkpt><trkpt lat="45.0798257" lon="7.6899396"><ele>228.42857142857142</ele><time>2026-04-18T09:25:46.976Z</time></trkpt><trkpt lat="45.0798817" lon="7.690011"><ele>228.0</ele><time>2026-04-18T09:25:53.976Z</time></trkpt><trkpt lat="45.0799263" lon="7.6900816"><ele>228.42857142857142</ele><time>2026-04-18T09:25:58.977Z</time></trkpt><trkpt lat="45.0799779" lon="7.6901598"><ele>228.85714285714283</ele><time>2026-04-18T09:26:03.029Z</time></trkpt><trkpt lat="45.0800214" lon="7.6902491"><ele>229.28571428571428</ele><time>2026-04-18T09:26:08.977Z</time></trkpt><trkpt lat="45.0800633" lon="7.6903318"><ele>229.71428571428572</ele><time>2026-04-18T09:26:12.976Z</time></trkpt><trkpt lat="45.0800982" lon="7.690407"><ele>230.14285714285714</ele><time>2026-04-18T09:26:17.886Z</time></trkpt><trkpt lat="45.0801386" lon="7.6904882"><ele>230.57142857142856</ele><time>2026-04-18T09:26:21.902Z</time></trkpt><trkpt lat="45.0801763" lon="7.6905702"><ele>231.0</ele><time>2026-04-18T09:26:25.857Z</time></trkpt><trkpt lat="45.0802296" lon="7.6906721"><ele>231.0</ele><time>2026-04-18T09:26:34.068Z</time></trkpt><trkpt lat="45.0802729" lon="7.6907432"><ele>231.0</ele><time>2026-04-18T09:26:39.977Z</time></trkpt><trkpt lat="45.0803194" lon="7.6908214"><ele>231.0</ele><time>2026-04-18T09:26:45.901Z</time></trkpt><trkpt lat="45.0803536" lon="7.6908976"><ele>231.0</ele><time>2026-04-18T09:26:51.039Z</time></trkpt><trkpt lat="45.0803999" lon="7.6909859"><ele>231.0</ele><time>2026-04-18T09:26:57.976Z</time></trkpt><trkpt lat="45.0804368" lon="7.6910621"><ele>231.0</ele><time>2026-04-18T09:27:02.976Z</time></trkpt><trkpt lat="45.0804695" lon="7.6911485"><ele>231.0</ele><time>2026-04-18T09:27:07.976Z</time></trkpt><trkpt lat="45.0805183" lon="7.6912313"><ele>230.5</ele><time>2026-04-18T09:27:12.977Z</time></trkpt><trkpt lat="45.0805503" lon="7.6913082"><ele>230.0</ele><time>2026-04-18T09:27:17.034Z</time></trkpt><trkpt lat="45.0805961" lon="7.6914164"><ele>229.5</ele><time>2026-04-18T09:27:21.977Z</time></trkpt><trkpt lat="45.0806269" lon="7.6915153"><ele>229.0</ele><time>2026-04-18T09:27:28.972Z</time></trkpt><trkpt lat="45.0806617" lon="7.6916028"><ele>228.5</ele><time>2026-04-18T09:27:33.034Z</time></trkpt><trkpt lat="45.080695" lon="7.6917215"><ele>228.0</ele><time>2026-04-18T09:27:37.92Z</time></trkpt><trkpt lat="45.0807385" lon="7.6918099"><ele>228.42857142857142</ele><time>2026-04-18T09:27:42.977Z</time></trkpt><trkpt lat="45.0807763" lon="7.6918924"><ele>228.85714285714283</ele><time>2026-04-18T09:27:47.977Z</time></trkpt><trkpt lat="45.0808227" lon="7.6919877"><ele>229.28571428571428</ele><time>2026-04-18T09:28:09.997Z</time></trkpt><trkpt lat="45.0808623" lon="7.6920693"><ele>229.71428571428572</ele><time>2026-04-18T09:28:20.915Z</time></trkpt><trkpt lat="45.0808535" lon="7.6921722"><ele>230.14285714285714</ele><time>2026-04-18T09:28:27.976Z</time></trkpt><trkpt lat="45.0809075" lon="7.6922425"><ele>230.57142857142856</ele><time>2026-04-18T09:28:31.977Z</time></trkpt><trkpt lat="45.080921" lon="7.6923383"><ele>231.0</ele><time>2026-04-18T09:28:38.976Z</time></trkpt><trkpt lat="45.0809742" lon="7.6924129"><ele>231.0</ele><time>2026-04-18T09:29:35.977Z</time></trkpt><trkpt lat="45.0809987" lon="7.6925098"><ele>231.0</ele><time>2026-04-18T09:29:40.976Z</time></trkpt><trkpt lat="45.0810008" lon="7.6926174"><ele>231.0</ele><time>2026-04-18T09:29:45.984Z</time></trkpt><trkpt lat="45.0809462" lon="7.6926817"><ele>231.0</ele><time>2026-04-18T09:29:48.976Z</time></trkpt><trkpt lat="45.0809101" lon="7.6927724"><ele>231.0</ele><time>2026-04-18T09:30:53.988Z</time></trkpt><trkpt lat="45.0809379" lon="7.6928641"><ele>231.0</ele><time>2026-04-18T09:30:59.014Z</time></trkpt><trkpt lat="45.0809862" lon="7.6929552"><ele>231.0</ele><time>2026-04-18T09:31:03.976Z</time></trkpt><trkpt lat="45.0810206" lon="7.6930302"><ele>231.28571428571428</ele><time>2026-04-18T09:31:08.976Z</time></trkpt><trkpt lat="45.0810606" lon="7.693121"><ele>231.57142857142856</ele><time>2026-04-18T09:32:47.977Z</time></trkpt><trkpt lat="45.081127" lon="7.6931772"><ele>231.85714285714286</ele><time>2026-04-18T09:32:52.977Z</time></trkpt><trkpt lat="45.0811894" lon="7.693208"><ele>232.14285714285714</ele><time>2026-04-18T09:32:56.877Z</time></trkpt><trkpt lat="45.0812629" lon="7.6932255"><ele>232.42857142857142</ele><time>2026-04-18T09:33:00.957Z</time></trkpt><trkpt lat="45.0813238" lon="7.6932511"><ele>232.71428571428572</ele><time>2026-04-18T09:33:05.047Z</time></trkpt><trkpt lat="45.0813922" lon="7.6932838"><ele>233.0</ele><time>2026-04-18T09:33:09.976Z</time></trkpt><trkpt lat="45.0814358" lon="7.6933534"><ele>233.0</ele><time>2026-04-18T09:33:14.977Z</time></trkpt><trkpt lat="45.0814703" lon="7.6934409"><ele>233.0</ele><time>2026-04-18T09:33:18.977Z</time></trkpt><trkpt lat="45.0815073" lon="7.6935327"><ele>233.0</ele><time>2026-04-18T09:33:23.977Z</time></trkpt><trkpt lat="45.0815462" lon="7.6936075"><ele>233.0</ele><time>2026-04-18T09:33:28.977Z</time></trkpt><trkpt lat="45.0815837" lon="7.6936916"><ele>233.0</ele><time>2026-04-18T09:33:34.929Z</time></trkpt><trkpt lat="45.0816251" lon="7.6937759"><ele>233.0</ele><time>2026-04-18T09:33:40.914Z</time></trkpt><trkpt lat="45.0816666" lon="7.6938696"><ele>233.0</ele><time>2026-04-18T09:33:48.056Z</time></trkpt><trkpt lat="45.081707" lon="7.6939559"><ele>232.71428571428572</ele><time>2026-04-18T09:33:54.917Z</time></trkpt><trkpt lat="45.0817398" lon="7.6940395"><ele>232.42857142857142</ele><time>2026-04-18T09:33:59.017Z</time></trkpt><trkpt lat="45.081782" lon="7.6941238"><ele>232.14285714285714</ele><time>2026-04-18T09:34:04.036Z</time></trkpt><trkpt lat="45.0818231" lon="7.6942109"><ele>231.85714285714286</ele><time>2026-04-18T09:34:10.888Z</time></trkpt><trkpt lat="45.0818607" lon="7.6942961"><ele>231.57142857142856</ele><time>2026-04-18T09:34:16.99Z</time></trkpt><trkpt lat="45.0818992" lon="7.694378"><ele>231.28571428571428</ele><time>2026-04-18T09:34:21.04Z</time></trkpt><trkpt lat="45.0819341" lon="7.6944627"><ele>231.0</ele><time>2026-04-18T09:34:25.977Z</time></trkpt><trkpt lat="45.0819733" lon="7.6945492"><ele>230.85714285714286</ele><time>2026-04-18T09:34:28.993Z</time></trkpt><trkpt lat="45.0820126" lon="7.694639"><ele>230.71428571428572</ele><time>2026-04-18T09:34:33.977Z</time></trkpt><trkpt lat="45.082051" lon="7.6947181"><ele>230.57142857142856</ele><time>2026-04-18T09:34:36.977Z</time></trkpt><trkpt lat="45.082092" lon="7.6948018"><ele>230.42857142857142</ele><time>2026-04-18T09:34:43.989Z</time></trkpt><trkpt lat="45.0821318" lon="7.6948947"><ele>230.28571428571428</ele><time>2026-04-18T09:34:48.995Z</time></trkpt><trkpt lat="45.0821676" lon="7.694973"><ele>230.1428571428571</ele><time>2026-04-18T09:34:52.988Z</time></trkpt><trkpt lat="45.0822091" lon="7.6950586"><ele>229.99999999999997</ele><time>2026-04-18T09:34:57.989Z</time></trkpt><trkpt lat="45.0822441" lon="7.6951401"><ele>229.99999999999997</ele><time>2026-04-18T09:35:02.001Z</time></trkpt><trkpt lat="45.0822769" lon="7.6952276"><ele>230.0</ele><time>2026-04-18T09:35:07.972Z</time></trkpt><trkpt lat="45.0822986" lon="7.6953213"><ele>229.99999999999997</ele><time>2026-04-18T09:35:31.91Z</time></trkpt><trkpt lat="45.082343" lon="7.6954058"><ele>229.99999999999997</ele><time>2026-04-18T09:35:36.988Z</time></trkpt><trkpt lat="45.082383" lon="7.6955013"><ele>230.0</ele><time>2026-04-18T09:35:41.989Z</time></trkpt><trkpt lat="45.0824213" lon="7.6955765"><ele>229.99999999999997</ele><time>2026-04-18T09:35:46.934Z</time></trkpt><trkpt lat="45.0824593" lon="7.6956629"><ele>229.99999999999997</ele><time>2026-04-18T09:35:52.972Z</time></trkpt><trkpt lat="45.0824944" lon="7.6957499"><ele>229.85714285714283</ele><time>2026-04-18T09:35:58.989Z</time></trkpt><trkpt lat="45.082523" lon="7.6958376"><ele>229.71428571428572</ele><time>2026-04-18T09:36:04.984Z</time></trkpt><trkpt lat="45.0825557" lon="7.6959267"><ele>229.57142857142856</ele><time>2026-04-18T09:36:10.989Z</time></trkpt><trkpt lat="45.0825918" lon="7.6960025"><ele>229.42857142857142</ele><time>2026-04-18T09:36:16.989Z</time></trkpt><trkpt lat="45.0826306" lon="7.6960866"><ele>229.28571428571428</ele><time>2026-04-18T09:36:22.989Z</time></trkpt><trkpt lat="45.0826075" lon="7.6961931"><ele>229.14285714285714</ele><time>2026-04-18T09:36:26.919Z</time></trkpt><trkpt lat="45.0825787" lon="7.696275"><ele>229.0</ele><time>2026-04-18T09:36:31Z</time></trkpt><trkpt lat="45.0825801" lon="7.6963655"><ele>229.83333333333331</ele><time>2026-04-18T09:36:37.989Z</time></trkpt><trkpt lat="45.082613" lon="7.6964506"><ele>230.66666666666666</ele><time>2026-04-18T09:36:42.996Z</time></trkpt><trkpt lat="45.0826389" lon="7.6965501"><ele>231.5</ele><time>2026-04-18T09:36:48.957Z</time></trkpt><trkpt lat="45.0826957" lon="7.6966183"><ele>232.33333333333331</ele><time>2026-04-18T09:36:53.989Z</time></trkpt><trkpt lat="45.0827498" lon="7.6966969"><ele>233.16666666666666</ele><time>2026-04-18T09:36:58.02Z</time></trkpt><trkpt lat="45.0827781" lon="7.6967985"><ele>234.0</ele><time>2026-04-18T09:37:02.989Z</time></trkpt><trkpt lat="45.082858" lon="7.6968432"><ele>234.0</ele><time>2026-04-18T09:37:08.957Z</time></trkpt><trkpt lat="45.0829212" lon="7.6968991"><ele>234.00000000000003</ele><time>2026-04-18T09:37:12.989Z</time></trkpt><trkpt lat="45.0829772" lon="7.696967"><ele>234.0</ele><time>2026-04-18T09:37:14.988Z</time></trkpt><trkpt lat="45.0830082" lon="7.6970545"><ele>234.0</ele><time>2026-04-18T09:37:19.948Z</time></trkpt><trkpt lat="45.0830054" lon="7.6971441"><ele>234.00000000000003</ele><time>2026-04-18T09:37:25.996Z</time></trkpt><trkpt lat="45.0830231" lon="7.6972305"><ele>234.0</ele><time>2026-04-18T09:38:11.956Z</time></trkpt><trkpt lat="45.0830557" lon="7.6973173"><ele>234.0</ele><time>2026-04-18T09:38:16.998Z</time></trkpt><trkpt lat="45.0830921" lon="7.6974014"><ele>233.83333333333334</ele><time>2026-04-18T09:38:22.973Z</time></trkpt><trkpt lat="45.0831388" lon="7.6974664"><ele>233.66666666666669</ele><time>2026-04-18T09:38:26.989Z</time></trkpt><trkpt lat="45.0831824" lon="7.6975792"><ele>233.5</ele><time>2026-04-18T09:38:31.989Z</time></trkpt><trkpt lat="45.0831996" lon="7.6976814"><ele>233.33333333333334</ele><time>2026-04-18T09:38:36.977Z</time></trkpt><trkpt lat="45.0832651" lon="7.6977119"><ele>233.16666666666669</ele><time>2026-04-18T09:38:38.979Z</time></trkpt><trkpt lat="45.0833263" lon="7.6977742"><ele>233.0</ele><time>2026-04-18T09:38:43.951Z</time></trkpt><trkpt lat="45.0833822" lon="7.6978619"><ele>232.57142857142858</ele><time>2026-04-18T09:38:48.972Z</time></trkpt><trkpt lat="45.0834373" lon="7.6979087"><ele>232.1428571428571</ele><time>2026-04-18T09:38:52.989Z</time></trkpt><trkpt lat="45.0834754" lon="7.6979923"><ele>231.7142857142857</ele><time>2026-04-18T09:38:59.011Z</time></trkpt><trkpt lat="45.0834699" lon="7.6980844"><ele>231.28571428571428</ele><time>2026-04-18T09:39:03.974Z</time></trkpt><trkpt lat="45.0835167" lon="7.6981613"><ele>230.85714285714283</ele><time>2026-04-18T09:39:08.001Z</time></trkpt><trkpt lat="45.0835593" lon="7.6982431"><ele>230.4285714285714</ele><time>2026-04-18T09:39:13.989Z</time></trkpt><trkpt lat="45.083615" lon="7.6983053"><ele>229.99999999999997</ele><time>2026-04-18T09:39:19.988Z</time></trkpt><trkpt lat="45.0836547" lon="7.6983809"><ele>229.99999999999997</ele><time>2026-04-18T09:39:25.003Z</time></trkpt><trkpt lat="45.0836894" lon="7.6984595"><ele>230.0</ele><time>2026-04-18T09:39:30.892Z</time></trkpt><trkpt lat="45.0837303" lon="7.6985456"><ele>229.99999999999997</ele><time>2026-04-18T09:39:35.989Z</time></trkpt><trkpt lat="45.083765" lon="7.6986232"><ele>229.99999999999997</ele><time>2026-04-18T09:39:41.974Z</time></trkpt><trkpt lat="45.0838012" lon="7.6987006"><ele>230.0</ele><time>2026-04-18T09:39:46.971Z</time></trkpt><trkpt lat="45.0838428" lon="7.6987777"><ele>229.99999999999997</ele><time>2026-04-18T09:39:50.973Z</time></trkpt><trkpt lat="45.0838823" lon="7.698862"><ele>229.99999999999997</ele><time>2026-04-18T09:39:56.894Z</time></trkpt><trkpt lat="45.0839273" lon="7.6989389"><ele>229.99999999999997</ele><time>2026-04-18T09:40:01.043Z</time></trkpt><trkpt lat="45.0839786" lon="7.6990345"><ele>230.0</ele><time>2026-04-18T09:40:08.063Z</time></trkpt><trkpt lat="45.0840141" lon="7.6991238"><ele>229.99999999999997</ele><time>2026-04-18T09:40:13.833Z</time></trkpt><trkpt lat="45.0840563" lon="7.6992088"><ele>229.99999999999997</ele><time>2026-04-18T09:40:18.978Z</time></trkpt><trkpt lat="45.0840911" lon="7.6992952"><ele>230.0</ele><time>2026-04-18T09:40:22.988Z</time></trkpt><trkpt lat="45.0841292" lon="7.6993714"><ele>229.99999999999997</ele><time>2026-04-18T09:40:27.975Z</time></trkpt><trkpt lat="45.0841727" lon="7.6994435"><ele>229.99999999999997</ele><time>2026-04-18T09:40:31.988Z</time></trkpt><trkpt lat="45.0842169" lon="7.6995265"><ele>229.85714285714283</ele><time>2026-04-18T09:40:36.996Z</time></trkpt><trkpt lat="45.0842526" lon="7.6996109"><ele>229.71428571428572</ele><time>2026-04-18T09:40:41.028Z</time></trkpt><trkpt lat="45.0842859" lon="7.6996908"><ele>229.57142857142856</ele><time>2026-04-18T09:40:45.976Z</time></trkpt><trkpt lat="45.084328" lon="7.6997851"><ele>229.42857142857142</ele><time>2026-04-18T09:40:52.917Z</time></trkpt><trkpt lat="45.0843633" lon="7.6998594"><ele>229.28571428571428</ele><time>2026-04-18T09:40:56.046Z</time></trkpt><trkpt lat="45.0843961" lon="7.6999406"><ele>229.14285714285714</ele><time>2026-04-18T09:41:03.018Z</time></trkpt><trkpt lat="45.0844397" lon="7.7000277"><ele>229.0</ele><time>2026-04-18T09:41:10.046Z</time></trkpt><trkpt lat="45.0844774" lon="7.7001059"><ele>229.0</ele><time>2026-04-18T09:41:13.974Z</time></trkpt><trkpt lat="45.0845138" lon="7.7001996"><ele>229.0</ele><time>2026-04-18T09:41:19.048Z</time></trkpt><trkpt lat="45.0845537" lon="7.7002864"><ele>229.0</ele><time>2026-04-18T09:41:24.9Z</time></trkpt><trkpt lat="45.0845868" lon="7.7003666"><ele>229.0</ele><time>2026-04-18T09:41:29.035Z</time></trkpt><trkpt lat="45.0846263" lon="7.7004493"><ele>229.0</ele><time>2026-04-18T09:41:33.893Z</time></trkpt><trkpt lat="45.0846611" lon="7.70053"><ele>229.0</ele><time>2026-04-18T09:41:39.978Z</time></trkpt><trkpt lat="45.0847017" lon="7.7006183"><ele>229.0</ele><time>2026-04-18T09:41:43.932Z</time></trkpt><trkpt lat="45.0847448" lon="7.700693"><ele>228.71428571428572</ele><time>2026-04-18T09:41:46.974Z</time></trkpt><trkpt lat="45.0848043" lon="7.700737"><ele>228.42857142857144</ele><time>2026-04-18T09:41:49.985Z</time></trkpt><trkpt lat="45.0848394" lon="7.7008117"><ele>228.14285714285717</ele><time>2026-04-18T09:41:54.974Z</time></trkpt><trkpt lat="45.0848822" lon="7.7008893"><ele>227.85714285714286</ele><time>2026-04-18T09:41:58.032Z</time></trkpt><trkpt lat="45.0849125" lon="7.7009894"><ele>227.5714285714286</ele><time>2026-04-18T09:42:03.982Z</time></trkpt><trkpt lat="45.0849497" lon="7.7010746"><ele>227.2857142857143</ele><time>2026-04-18T09:42:07.042Z</time></trkpt><trkpt lat="45.0849754" lon="7.7011563"><ele>227.0</ele><time>2026-04-18T09:42:11.993Z</time></trkpt><trkpt lat="45.0850127" lon="7.7012446"><ele>227.0</ele><time>2026-04-18T09:42:16.973Z</time></trkpt><trkpt lat="45.0850524" lon="7.7013301"><ele>227.00000000000003</ele><time>2026-04-18T09:42:22.033Z</time></trkpt><trkpt lat="45.0851136" lon="7.7014069"><ele>227.0</ele><time>2026-04-18T09:42:27.976Z</time></trkpt><trkpt lat="45.0851555" lon="7.7014777"><ele>227.0</ele><time>2026-04-18T09:42:33.975Z</time></trkpt><trkpt lat="45.0851927" lon="7.7015604"><ele>227.00000000000003</ele><time>2026-04-18T09:42:38.047Z</time></trkpt><trkpt lat="45.0852183" lon="7.7016435"><ele>227.0</ele><time>2026-04-18T09:42:42.912Z</time></trkpt><trkpt lat="45.0852499" lon="7.7017371"><ele>227.0</ele><time>2026-04-18T09:42:46.996Z</time></trkpt><trkpt lat="45.0852771" lon="7.7018262"><ele>227.0</ele><time>2026-04-18T09:42:51.921Z</time></trkpt><trkpt lat="45.0853135" lon="7.701904"><ele>227.00000000000003</ele><time>2026-04-18T09:42:56.971Z</time></trkpt><trkpt lat="45.0853503" lon="7.7019958"><ele>227.0</ele><time>2026-04-18T09:43:02.044Z</time></trkpt><trkpt lat="45.0853908" lon="7.7020801"><ele>227.0</ele><time>2026-04-18T09:43:06.971Z</time></trkpt><trkpt lat="45.0854239" lon="7.7021569"><ele>227.00000000000003</ele><time>2026-04-18T09:43:10.989Z</time></trkpt><trkpt lat="45.0854646" lon="7.7022575"><ele>227.0</ele><time>2026-04-18T09:43:15.934Z</time></trkpt><trkpt lat="45.0854994" lon="7.7023454"><ele>227.0</ele><time>2026-04-18T09:43:20.974Z</time></trkpt><trkpt lat="45.0855384" lon="7.7024246"><ele>227.0</ele><time>2026-04-18T09:43:25.054Z</time></trkpt><trkpt lat="45.0855762" lon="7.7025001"><ele>227.00000000000003</ele><time>2026-04-18T09:43:29.975Z</time></trkpt><trkpt lat="45.0856228" lon="7.7025919"><ele>227.0</ele><time>2026-04-18T09:43:33.975Z</time></trkpt><trkpt lat="45.0856693" lon="7.7026672"><ele>227.0</ele><time>2026-04-18T09:43:38.971Z</time></trkpt><trkpt lat="45.0857108" lon="7.7027348"><ele>227.00000000000003</ele><time>2026-04-18T09:43:43.04Z</time></trkpt><trkpt lat="45.085746" lon="7.7028278"><ele>227.0</ele><time>2026-04-18T09:43:47.971Z</time></trkpt><trkpt lat="45.0857638" lon="7.7029193"><ele>227.0</ele><time>2026-04-18T09:43:52.97Z</time></trkpt><trkpt lat="45.0857993" lon="7.7030101"><ele>227.0</ele><time>2026-04-18T09:43:58.051Z</time></trkpt><trkpt lat="45.0858318" lon="7.7031085"><ele>227.00000000000003</ele><time>2026-04-18T09:44:03.974Z</time></trkpt><trkpt lat="45.0858568" lon="7.703191"><ele>227.0</ele><time>2026-04-18T09:44:08.973Z</time></trkpt><trkpt lat="45.0858905" lon="7.7032718"><ele>227.0</ele><time>2026-04-18T09:44:13.007Z</time></trkpt><trkpt lat="45.0859195" lon="7.7033556"><ele>227.00000000000003</ele><time>2026-04-18T09:44:17.974Z</time></trkpt><trkpt lat="45.0859598" lon="7.7034296"><ele>227.0</ele><time>2026-04-18T09:44:22.012Z</time></trkpt><trkpt lat="45.0859977" lon="7.7035192"><ele>227.0</ele><time>2026-04-18T09:44:26.97Z</time></trkpt><trkpt lat="45.0860402" lon="7.7036018"><ele>226.85714285714286</ele><time>2026-04-18T09:44:31.988Z</time></trkpt><trkpt lat="45.0860723" lon="7.7036892"><ele>226.71428571428572</ele><time>2026-04-18T09:44:36.993Z</time></trkpt><trkpt lat="45.0860982" lon="7.7037743"><ele>226.57142857142858</ele><time>2026-04-18T09:44:41.911Z</time></trkpt><trkpt lat="45.0861166" lon="7.7038614"><ele>226.42857142857144</ele><time>2026-04-18T09:44:46.955Z</time></trkpt><trkpt lat="45.0861345" lon="7.7039574"><ele>226.28571428571428</ele><time>2026-04-18T09:44:51.974Z</time></trkpt><trkpt lat="45.0861526" lon="7.7040478"><ele>226.14285714285717</ele><time>2026-04-18T09:44:57.017Z</time></trkpt><trkpt lat="45.0861743" lon="7.7041423"><ele>226.0</ele><time>2026-04-18T09:45:02.047Z</time></trkpt><trkpt lat="45.0861991" lon="7.7042279"><ele>226.0</ele><time>2026-04-18T09:45:06.978Z</time></trkpt><trkpt lat="45.0862116" lon="7.7043314"><ele>226.0</ele><time>2026-04-18T09:45:11.973Z</time></trkpt><trkpt lat="45.0862235" lon="7.7044402"><ele>226.0</ele><time>2026-04-18T09:45:16.941Z</time></trkpt><trkpt lat="45.086234" lon="7.704541"><ele>226.0</ele><time>2026-04-18T09:45:21.973Z</time></trkpt><trkpt lat="45.0862956" lon="7.704597"><ele>226.0</ele><time>2026-04-18T09:45:27.031Z</time></trkpt><trkpt lat="45.0863719" lon="7.7046253"><ele>226.0</ele><time>2026-04-18T09:45:31.975Z</time></trkpt><trkpt lat="45.086433" lon="7.7046546"><ele>226.0</ele><time>2026-04-18T09:45:37.018Z</time></trkpt><trkpt lat="45.0864937" lon="7.7046995"><ele>226.14285714285717</ele><time>2026-04-18T09:45:39.971Z</time></trkpt><trkpt lat="45.0865581" lon="7.7047599"><ele>226.28571428571428</ele><time>2026-04-18T09:45:44.977Z</time></trkpt><trkpt lat="45.0866108" lon="7.7048426"><ele>226.42857142857144</ele><time>2026-04-18T09:45:48.971Z</time></trkpt><trkpt lat="45.0866453" lon="7.7049303"><ele>226.57142857142858</ele><time>2026-04-18T09:45:52.039Z</time></trkpt><trkpt lat="45.0866791" lon="7.7050196"><ele>226.71428571428572</ele><time>2026-04-18T09:45:56.951Z</time></trkpt><trkpt lat="45.0867133" lon="7.705104"><ele>226.85714285714286</ele><time>2026-04-18T09:46:01.974Z</time></trkpt><trkpt lat="45.0867533" lon="7.7051917"><ele>227.0</ele><time>2026-04-18T09:46:07.06Z</time></trkpt><trkpt lat="45.0867889" lon="7.7052775"><ele>227.0</ele><time>2026-04-18T09:46:12.97Z</time></trkpt><trkpt lat="45.0868215" lon="7.7053559"><ele>227.00000000000003</ele><time>2026-04-18T09:46:16.977Z</time></trkpt><trkpt lat="45.0868547" lon="7.7054392"><ele>227.0</ele><time>2026-04-18T09:46:22.051Z</time></trkpt><trkpt lat="45.0868911" lon="7.7055122"><ele>227.0</ele><time>2026-04-18T09:46:26.98Z</time></trkpt><trkpt lat="45.0869294" lon="7.7055973"><ele>227.00000000000003</ele><time>2026-04-18T09:46:32.038Z</time></trkpt><trkpt lat="45.086983" lon="7.7056955"><ele>227.0</ele><time>2026-04-18T09:46:38.037Z</time></trkpt><trkpt lat="45.0870243" lon="7.7057871"><ele>227.0</ele><time>2026-04-18T09:46:43.982Z</time></trkpt><trkpt lat="45.0870654" lon="7.7058761"><ele>227.00000000000003</ele><time>2026-04-18T09:46:48.975Z</time></trkpt><trkpt lat="45.0871079" lon="7.7059654"><ele>227.0</ele><time>2026-04-18T09:46:54.042Z</time></trkpt><trkpt lat="45.0871439" lon="7.7060433"><ele>227.0</ele><time>2026-04-18T09:46:58.954Z</time></trkpt><trkpt lat="45.0871807" lon="7.7061359"><ele>227.0</ele><time>2026-04-18T09:47:04.006Z</time></trkpt><trkpt lat="45.0872202" lon="7.7062341"><ele>227.00000000000003</ele><time>2026-04-18T09:47:08.988Z</time></trkpt><trkpt lat="45.0872629" lon="7.706327"><ele>227.0</ele><time>2026-04-18T09:47:14.972Z</time></trkpt><trkpt lat="45.0873038" lon="7.7064171"><ele>227.0</ele><time>2026-04-18T09:47:18.971Z</time></trkpt><trkpt lat="45.0873449" lon="7.7065056"><ele>227.00000000000003</ele><time>2026-04-18T09:47:23.969Z</time></trkpt><trkpt lat="45.0873855" lon="7.7065982"><ele>227.0</ele><time>2026-04-18T09:47:29.816Z</time></trkpt><trkpt lat="45.0874236" lon="7.7066835"><ele>227.0</ele><time>2026-04-18T09:47:34.067Z</time></trkpt><trkpt lat="45.0874601" lon="7.7067676"><ele>227.00000000000003</ele><time>2026-04-18T09:47:39.99Z</time></trkpt><trkpt lat="45.0875003" lon="7.7068575"><ele>227.0</ele><time>2026-04-18T09:47:44.051Z</time></trkpt><trkpt lat="45.0875337" lon="7.7069354"><ele>227.0</ele><time>2026-04-18T09:47:47.973Z</time></trkpt><trkpt lat="45.0875747" lon="7.707026"><ele>227.0</ele><time>2026-04-18T09:47:52.045Z</time></trkpt><trkpt lat="45.0876139" lon="7.7071206"><ele>227.00000000000003</ele><time>2026-04-18T09:47:57.971Z</time></trkpt><trkpt lat="45.0876565" lon="7.7071988"><ele>227.0</ele><time>2026-04-18T09:48:01.977Z</time></trkpt><trkpt lat="45.0876946" lon="7.707271"><ele>227.0</ele><time>2026-04-18T09:48:06.975Z</time></trkpt><trkpt lat="45.0877359" lon="7.7073398"><ele>227.00000000000003</ele><time>2026-04-18T09:48:10.984Z</time></trkpt><trkpt lat="45.0877902" lon="7.7074238"><ele>227.0</ele><time>2026-04-18T09:48:15.969Z</time></trkpt><trkpt lat="45.0878322" lon="7.7075025"><ele>227.0</ele><time>2026-04-18T09:48:22.974Z</time></trkpt><trkpt lat="45.0878584" lon="7.7075925"><ele>227.0</ele><time>2026-04-18T09:48:26.97Z</time></trkpt><trkpt lat="45.0878746" lon="7.7076826"><ele>227.00000000000003</ele><time>2026-04-18T09:48:31.971Z</time></trkpt><trkpt lat="45.087912" lon="7.7077613"><ele>227.0</ele><time>2026-04-18T09:49:10.972Z</time></trkpt><trkpt lat="45.0879583" lon="7.7078447"><ele>227.0</ele><time>2026-04-18T09:49:16.976Z</time></trkpt><trkpt lat="45.0880149" lon="7.7078961"><ele>227.00000000000003</ele><time>2026-04-18T09:49:22.973Z</time></trkpt><trkpt lat="45.088059" lon="7.7080004"><ele>227.0</ele><time>2026-04-18T09:49:27.974Z</time></trkpt><trkpt lat="45.0880877" lon="7.7080875"><ele>227.0</ele><time>2026-04-18T09:49:32.959Z</time></trkpt><trkpt lat="45.0881252" lon="7.7081718"><ele>227.0</ele><time>2026-04-18T09:49:37.974Z</time></trkpt><trkpt lat="45.0881649" lon="7.7082564"><ele>227.00000000000003</ele><time>2026-04-18T09:49:41.955Z</time></trkpt><trkpt lat="45.0881992" lon="7.7083465"><ele>227.0</ele><time>2026-04-18T09:49:47.986Z</time></trkpt><trkpt lat="45.0882454" lon="7.7084147"><ele>227.0</ele><time>2026-04-18T09:49:52.975Z</time></trkpt><trkpt lat="45.0882852" lon="7.7084929"><ele>227.00000000000003</ele><time>2026-04-18T09:49:57.888Z</time></trkpt><trkpt lat="45.0883241" lon="7.7085766"><ele>227.0</ele><time>2026-04-18T09:50:02.975Z</time></trkpt><trkpt lat="45.0883617" lon="7.7086582"><ele>227.0</ele><time>2026-04-18T09:50:07.979Z</time></trkpt><trkpt lat="45.0884002" lon="7.7087446"><ele>226.85714285714286</ele><time>2026-04-18T09:50:13.029Z</time></trkpt><trkpt lat="45.0884441" lon="7.7088366"><ele>226.71428571428572</ele><time>2026-04-18T09:50:18.97Z</time></trkpt><trkpt lat="45.0884818" lon="7.7089173"><ele>226.57142857142858</ele><time>2026-04-18T09:50:23.975Z</time></trkpt><trkpt lat="45.0885199" lon="7.7090087"><ele>226.42857142857144</ele><time>2026-04-18T09:50:28.955Z</time></trkpt><trkpt lat="45.088559" lon="7.7091007"><ele>226.28571428571428</ele><time>2026-04-18T09:50:33.97Z</time></trkpt><trkpt lat="45.0885946" lon="7.7091772"><ele>226.14285714285717</ele><time>2026-04-18T09:50:38.049Z</time></trkpt><trkpt lat="45.0886292" lon="7.709262"><ele>226.0</ele><time>2026-04-18T09:50:42.971Z</time></trkpt><trkpt lat="45.0886647" lon="7.7093499"><ele>226.0</ele><time>2026-04-18T09:50:48.022Z</time></trkpt><trkpt lat="45.0887097" lon="7.7094287"><ele>226.0</ele><time>2026-04-18T09:50:52.971Z</time></trkpt><trkpt lat="45.088743" lon="7.7095085"><ele>226.0</ele><time>2026-04-18T09:50:57.931Z</time></trkpt><trkpt lat="45.0887828" lon="7.7095977"><ele>226.0</ele><time>2026-04-18T09:51:02.971Z</time></trkpt><trkpt lat="45.0888197" lon="7.7096876"><ele>226.0</ele><time>2026-04-18T09:51:07.975Z</time></trkpt><trkpt lat="45.0888578" lon="7.7097792"><ele>226.0</ele><time>2026-04-18T09:51:12.973Z</time></trkpt><trkpt lat="45.0888957" lon="7.7098705"><ele>226.0</ele><time>2026-04-18T09:51:18.04Z</time></trkpt><trkpt lat="45.088933" lon="7.7099594"><ele>226.0</ele><time>2026-04-18T09:51:22.97Z</time></trkpt><trkpt lat="45.0889709" lon="7.7100409"><ele>226.0</ele><time>2026-04-18T09:51:27.878Z</time></trkpt><trkpt lat="45.089014" lon="7.7101349"><ele>226.0</ele><time>2026-04-18T09:51:32.974Z</time></trkpt><trkpt lat="45.0890466" lon="7.7102243"><ele>226.0</ele><time>2026-04-18T09:51:37.972Z</time></trkpt><trkpt lat="45.0890816" lon="7.7103151"><ele>226.0</ele><time>2026-04-18T09:51:43.033Z</time></trkpt><trkpt lat="45.089123" lon="7.7104117"><ele>226.0</ele><time>2026-04-18T09:51:47.973Z</time></trkpt><trkpt lat="45.08916" lon="7.7104908"><ele>226.0</ele><time>2026-04-18T09:51:53.976Z</time></trkpt><trkpt lat="45.0892085" lon="7.7105839"><ele>225.57142857142858</ele><time>2026-04-18T09:51:57.018Z</time></trkpt><trkpt lat="45.0892452" lon="7.7106589"><ele>225.14285714285714</ele><time>2026-04-18T09:52:01.971Z</time></trkpt><trkpt lat="45.0892875" lon="7.710739"><ele>224.71428571428572</ele><time>2026-04-18T09:52:05.856Z</time></trkpt><trkpt lat="45.0893327" lon="7.7108145"><ele>224.28571428571428</ele><time>2026-04-18T09:52:10.972Z</time></trkpt><trkpt lat="45.0893798" lon="7.7108898"><ele>223.85714285714283</ele><time>2026-04-18T09:52:15.979Z</time></trkpt><trkpt lat="45.0894367" lon="7.7109664"><ele>223.42857142857142</ele><time>2026-04-18T09:52:21.024Z</time></trkpt><trkpt lat="45.0895044" lon="7.7110147"><ele>223.0</ele><time>2026-04-18T09:52:25.976Z</time></trkpt><trkpt lat="45.0895598" lon="7.7110655"><ele>223.14285714285714</ele><time>2026-04-18T09:52:29.938Z</time></trkpt><trkpt lat="45.0896144" lon="7.7111276"><ele>223.28571428571428</ele><time>2026-04-18T09:52:34.99Z</time></trkpt><trkpt lat="45.0896717" lon="7.7111887"><ele>223.42857142857144</ele><time>2026-04-18T09:52:39.991Z</time></trkpt><trkpt lat="45.0897258" lon="7.7112462"><ele>223.57142857142856</ele><time>2026-04-18T09:52:44.893Z</time></trkpt><trkpt lat="45.0897837" lon="7.7113065"><ele>223.71428571428572</ele><time>2026-04-18T09:52:50.018Z</time></trkpt><trkpt lat="45.089848" lon="7.7113641"><ele>223.85714285714286</ele><time>2026-04-18T09:52:54.976Z</time></trkpt><trkpt lat="45.0899029" lon="7.7114224"><ele>224.0</ele><time>2026-04-18T09:52:59.971Z</time></trkpt><trkpt lat="45.0899562" lon="7.711484"><ele>224.14285714285714</ele><time>2026-04-18T09:53:05.015Z</time></trkpt><trkpt lat="45.0900157" lon="7.7115441"><ele>224.28571428571428</ele><time>2026-04-18T09:53:10.988Z</time></trkpt><trkpt lat="45.0900682" lon="7.7116076"><ele>224.42857142857144</ele><time>2026-04-18T09:53:16.974Z</time></trkpt><trkpt lat="45.0901204" lon="7.7116646"><ele>224.57142857142858</ele><time>2026-04-18T09:53:23.977Z</time></trkpt><trkpt lat="45.0901715" lon="7.7117181"><ele>224.71428571428572</ele><time>2026-04-18T09:53:28.037Z</time></trkpt><trkpt lat="45.0902205" lon="7.7117742"><ele>224.8571428571429</ele><time>2026-04-18T09:53:32.972Z</time></trkpt><trkpt lat="45.0902753" lon="7.7118327"><ele>225.00000000000003</ele><time>2026-04-18T09:53:37.971Z</time></trkpt><trkpt lat="45.090337" lon="7.7118943"><ele>224.8571428571429</ele><time>2026-04-18T09:53:43.028Z</time></trkpt><trkpt lat="45.0903934" lon="7.7119534"><ele>224.71428571428572</ele><time>2026-04-18T09:53:49.017Z</time></trkpt><trkpt lat="45.0904479" lon="7.7120139"><ele>224.57142857142858</ele><time>2026-04-18T09:53:53.042Z</time></trkpt><trkpt lat="45.0905015" lon="7.7120805"><ele>224.42857142857144</ele><time>2026-04-18T09:53:57.972Z</time></trkpt><trkpt lat="45.090561" lon="7.7121535"><ele>224.28571428571428</ele><time>2026-04-18T09:54:02.969Z</time></trkpt><trkpt lat="45.090615" lon="7.7122193"><ele>224.14285714285714</ele><time>2026-04-18T09:54:08.045Z</time></trkpt><trkpt lat="45.0906608" lon="7.7122868"><ele>224.0</ele><time>2026-04-18T09:54:40.042Z</time></trkpt><trkpt lat="45.0907191" lon="7.7123563"><ele>224.0</ele><time>2026-04-18T09:54:43.976Z</time></trkpt><trkpt lat="45.0907732" lon="7.7124032"><ele>224.0</ele><time>2026-04-18T09:54:48.052Z</time></trkpt><trkpt lat="45.0908444" lon="7.7124617"><ele>224.0</ele><time>2026-04-18T09:54:54.034Z</time></trkpt><trkpt lat="45.0908979" lon="7.7125131"><ele>224.0</ele><time>2026-04-18T09:54:58.971Z</time></trkpt><trkpt lat="45.0909565" lon="7.7125692"><ele>224.0</ele><time>2026-04-18T09:55:02.974Z</time></trkpt><trkpt lat="45.0910151" lon="7.7126224"><ele>224.0</ele><time>2026-04-18T09:55:07.974Z</time></trkpt><trkpt lat="45.0910701" lon="7.7126842"><ele>224.0</ele><time>2026-04-18T09:55:12.976Z</time></trkpt><trkpt lat="45.0911323" lon="7.7127398"><ele>224.00000000000003</ele><time>2026-04-18T09:55:18.051Z</time></trkpt><trkpt lat="45.0912019" lon="7.712812"><ele>224.0</ele><time>2026-04-18T09:55:24.976Z</time></trkpt><trkpt lat="45.0912591" lon="7.7128774"><ele>224.0</ele><time>2026-04-18T09:55:31.97Z</time></trkpt><trkpt lat="45.0913073" lon="7.7129405"><ele>224.0</ele><time>2026-04-18T09:55:36.033Z</time></trkpt><trkpt lat="45.0913752" lon="7.7130076"><ele>224.00000000000003</ele><time>2026-04-18T09:55:43.039Z</time></trkpt><trkpt lat="45.0914421" lon="7.7130683"><ele>224.0</ele><time>2026-04-18T09:55:46.97Z</time></trkpt><trkpt lat="45.0915009" lon="7.7131289"><ele>224.0</ele><time>2026-04-18T09:55:49.97Z</time></trkpt><trkpt lat="45.0915402" lon="7.7132015"><ele>224.0</ele><time>2026-04-18T09:55:55.97Z</time></trkpt><trkpt lat="45.0915913" lon="7.713267"><ele>224.0</ele><time>2026-04-18T09:56:01.041Z</time></trkpt><trkpt lat="45.0916462" lon="7.7133208"><ele>224.0</ele><time>2026-04-18T09:56:06.975Z</time></trkpt><trkpt lat="45.0917028" lon="7.713374"><ele>224.0</ele><time>2026-04-18T09:56:12.972Z</time></trkpt><trkpt lat="45.0917588" lon="7.7134222"><ele>224.0</ele><time>2026-04-18T09:56:17.041Z</time></trkpt><trkpt lat="45.0918107" lon="7.7134742"><ele>224.0</ele><time>2026-04-18T09:56:21.977Z</time></trkpt><trkpt lat="45.0918599" lon="7.7135302"><ele>224.42857142857144</ele><time>2026-04-18T09:56:27.997Z</time></trkpt><trkpt lat="45.0919182" lon="7.7135869"><ele>224.85714285714286</ele><time>2026-04-18T09:56:31.972Z</time></trkpt><trkpt lat="45.0919845" lon="7.7136532"><ele>225.28571428571428</ele><time>2026-04-18T09:56:35.971Z</time></trkpt><trkpt lat="45.0920413" lon="7.7137072"><ele>225.71428571428572</ele><time>2026-04-18T09:56:40.027Z</time></trkpt><trkpt lat="45.0920999" lon="7.713766"><ele>226.14285714285717</ele><time>2026-04-18T09:56:44.977Z</time></trkpt><trkpt lat="45.0921577" lon="7.7138213"><ele>226.57142857142858</ele><time>2026-04-18T09:56:50.976Z</time></trkpt><trkpt lat="45.0922146" lon="7.7138797"><ele>227.0</ele><time>2026-04-18T09:56:55.054Z</time></trkpt><trkpt lat="45.0922768" lon="7.7139495"><ele>227.0</ele><time>2026-04-18T09:57:00.969Z</time></trkpt><trkpt lat="45.0923272" lon="7.7140051"><ele>227.00000000000003</ele><time>2026-04-18T09:57:05.007Z</time></trkpt><trkpt lat="45.0923856" lon="7.7140714"><ele>227.0</ele><time>2026-04-18T09:57:12.032Z</time></trkpt><trkpt lat="45.0924231" lon="7.7141484"><ele>227.0</ele><time>2026-04-18T09:57:17.975Z</time></trkpt><trkpt lat="45.0924384" lon="7.7142476"><ele>227.00000000000003</ele><time>2026-04-18T09:57:22.975Z</time></trkpt><trkpt lat="45.0924758" lon="7.7143258"><ele>227.0</ele><time>2026-04-18T09:57:27.057Z</time></trkpt><trkpt lat="45.092464" lon="7.7144356"><ele>227.0</ele><time>2026-04-18T09:57:29.969Z</time></trkpt><trkpt lat="45.0924843" lon="7.7145278"><ele>226.85714285714286</ele><time>2026-04-18T09:57:33.975Z</time></trkpt><trkpt lat="45.0924729" lon="7.7146301"><ele>226.71428571428572</ele><time>2026-04-18T09:57:38.989Z</time></trkpt><trkpt lat="45.0924225" lon="7.7146981"><ele>226.57142857142858</ele><time>2026-04-18T09:57:42.911Z</time></trkpt><trkpt lat="45.0923734" lon="7.7147654"><ele>226.42857142857144</ele><time>2026-04-18T09:57:45.993Z</time></trkpt><trkpt lat="45.0923339" lon="7.7148557"><ele>226.28571428571428</ele><time>2026-04-18T09:57:49.972Z</time></trkpt><trkpt lat="45.0923066" lon="7.7149462"><ele>226.14285714285717</ele><time>2026-04-18T09:57:55.97Z</time></trkpt><trkpt lat="45.0922728" lon="7.7150216"><ele>226.0</ele><time>2026-04-18T09:58:02.993Z</time></trkpt><trkpt lat="45.0922685" lon="7.7151193"><ele>226.0</ele><time>2026-04-18T09:58:10.971Z</time></trkpt><trkpt lat="45.092254" lon="7.7152148"><ele>226.00000000000003</ele><time>2026-04-18T09:58:16.032Z</time></trkpt><trkpt lat="45.0922234" lon="7.7153018"><ele>226.00000000000003</ele><time>2026-04-18T09:58:22.02Z</time></trkpt><trkpt lat="45.0922656" lon="7.7153682"><ele>226.0</ele><time>2026-04-18T09:58:30.036Z</time></trkpt><trkpt lat="45.0924315" lon="7.7153485"><ele>226.0</ele><time>2026-04-18T09:58:40.98Z</time></trkpt><trkpt lat="45.0926254" lon="7.7153816"><ele>225.66666666666666</ele><time>2026-04-18T09:58:43.972Z</time></trkpt><trkpt lat="45.0927009" lon="7.7154206"><ele>225.33333333333331</ele><time>2026-04-18T09:59:10.019Z</time></trkpt><trkpt lat="45.0928008" lon="7.7154526"><ele>225.0</ele><time>2026-04-18T09:59:14.991Z</time></trkpt><trkpt lat="45.0928762" lon="7.7154713"><ele>224.66666666666669</ele><time>2026-04-18T09:59:18.639Z</time></trkpt><trkpt lat="45.092944" lon="7.7154924"><ele>224.33333333333334</ele><time>2026-04-18T09:59:25.026Z</time></trkpt><trkpt lat="45.0930087" lon="7.7155402"><ele>224.0</ele><time>2026-04-18T09:59:29.97Z</time></trkpt><trkpt lat="45.0930528" lon="7.7156592"><ele>224.0</ele><time>2026-04-18T09:59:33.063Z</time></trkpt><trkpt lat="45.0930706" lon="7.715747"><ele>223.99999999999997</ele><time>2026-04-18T09:59:37.977Z</time></trkpt><trkpt lat="45.0931393" lon="7.7158331"><ele>223.99999999999997</ele><time>2026-04-18T09:59:58.047Z</time></trkpt><trkpt lat="45.0932842" lon="7.7158583"><ele>224.0</ele><time>2026-04-18T10:00:04.97Z</time></trkpt><trkpt lat="45.0933432" lon="7.715898"><ele>224.0</ele><time>2026-04-18T10:00:08.972Z</time></trkpt><trkpt lat="45.0934156" lon="7.7159549"><ele>223.79999999999998</ele><time>2026-04-18T10:00:12.973Z</time></trkpt><trkpt lat="45.0934159" lon="7.7160454"><ele>223.59999999999997</ele><time>2026-04-18T10:00:18.976Z</time></trkpt><trkpt lat="45.0935435" lon="7.7159627"><ele>223.4</ele><time>2026-04-18T10:00:19.99Z</time></trkpt><trkpt lat="45.0936522" lon="7.7159095"><ele>223.2</ele><time>2026-04-18T10:00:21.017Z</time></trkpt><trkpt lat="45.0936978" lon="7.7159778"><ele>223.0</ele><time>2026-04-18T10:00:24.971Z</time></trkpt><trkpt lat="45.0937728" lon="7.7160226"><ele>222.71428571428572</ele><time>2026-04-18T10:00:28.989Z</time></trkpt><trkpt lat="45.0938288" lon="7.716072"><ele>222.42857142857142</ele><time>2026-04-18T10:00:33.926Z</time></trkpt><trkpt lat="45.0938856" lon="7.7161492"><ele>222.14285714285717</ele><time>2026-04-18T10:00:38.967Z</time></trkpt><trkpt lat="45.0939363" lon="7.7162162"><ele>221.85714285714286</ele><time>2026-04-18T10:00:42.971Z</time></trkpt><trkpt lat="45.093994" lon="7.7162845"><ele>221.57142857142858</ele><time>2026-04-18T10:00:47.885Z</time></trkpt><trkpt lat="45.0940499" lon="7.7163509"><ele>221.2857142857143</ele><time>2026-04-18T10:00:52.979Z</time></trkpt><trkpt lat="45.0941092" lon="7.7164128"><ele>221.0</ele><time>2026-04-18T10:00:57.972Z</time></trkpt><trkpt lat="45.0941708" lon="7.7163893"><ele>221.00000000000003</ele><time>2026-04-18T10:01:18.899Z</time></trkpt><trkpt lat="45.0942837" lon="7.7163262"><ele>221.0</ele><time>2026-04-18T10:01:20.988Z</time></trkpt><trkpt lat="45.0943445" lon="7.716284"><ele>221.0</ele><time>2026-04-18T10:01:21.97Z</time></trkpt><trkpt lat="45.0944069" lon="7.7163224"><ele>221.0</ele><time>2026-04-18T10:01:36.97Z</time></trkpt><trkpt lat="45.0944597" lon="7.7163972"><ele>221.00000000000003</ele><time>2026-04-18T10:01:41.898Z</time></trkpt><trkpt lat="45.0945081" lon="7.7164643"><ele>221.0</ele><time>2026-04-18T10:01:45.968Z</time></trkpt><trkpt lat="45.0945646" lon="7.7165395"><ele>221.00000000000003</ele><time>2026-04-18T10:01:50.971Z</time></trkpt><trkpt lat="45.094619" lon="7.7166172"><ele>221.0</ele><time>2026-04-18T10:01:55.969Z</time></trkpt><trkpt lat="45.0946692" lon="7.7166853"><ele>221.0</ele><time>2026-04-18T10:02:00.984Z</time></trkpt><trkpt lat="45.0947229" lon="7.7167492"><ele>221.0</ele><time>2026-04-18T10:02:05.97Z</time></trkpt><trkpt lat="45.094776" lon="7.7168223"><ele>221.0</ele><time>2026-04-18T10:02:10.918Z</time></trkpt><trkpt lat="45.0948243" lon="7.7168878"><ele>221.00000000000003</ele><time>2026-04-18T10:02:15.97Z</time></trkpt><trkpt lat="45.0948761" lon="7.7169647"><ele>221.0</ele><time>2026-04-18T10:02:21.065Z</time></trkpt><trkpt lat="45.0949232" lon="7.7170432"><ele>220.85714285714286</ele><time>2026-04-18T10:02:25.989Z</time></trkpt><trkpt lat="45.0949662" lon="7.7171163"><ele>220.71428571428572</ele><time>2026-04-18T10:02:30.966Z</time></trkpt><trkpt lat="45.095012" lon="7.7171883"><ele>220.57142857142856</ele><time>2026-04-18T10:02:34.986Z</time></trkpt><trkpt lat="45.0950589" lon="7.7172566"><ele>220.42857142857144</ele><time>2026-04-18T10:02:38.98Z</time></trkpt><trkpt lat="45.0951087" lon="7.7173202"><ele>220.28571428571428</ele><time>2026-04-18T10:02:43.969Z</time></trkpt><trkpt lat="45.095155" lon="7.7173917"><ele>220.14285714285714</ele><time>2026-04-18T10:02:47.973Z</time></trkpt><trkpt lat="45.0951916" lon="7.7174714"><ele>220.0</ele><time>2026-04-18T10:02:53.988Z</time></trkpt><trkpt lat="45.0952555" lon="7.7175379"><ele>219.99999999999997</ele><time>2026-04-18T10:03:08.968Z</time></trkpt><trkpt lat="45.0953129" lon="7.7176124"><ele>220.0</ele><time>2026-04-18T10:03:12.982Z</time></trkpt><trkpt lat="45.0953752" lon="7.7176837"><ele>220.0</ele><time>2026-04-18T10:03:15.971Z</time></trkpt><trkpt lat="45.0954258" lon="7.7177457"><ele>220.0</ele><time>2026-04-18T10:03:18.973Z</time></trkpt><trkpt lat="45.0954732" lon="7.717812"><ele>220.0</ele><time>2026-04-18T10:03:22.969Z</time></trkpt><trkpt lat="45.0955302" lon="7.7178785"><ele>219.99999999999997</ele><time>2026-04-18T10:03:26.92Z</time></trkpt><trkpt lat="45.0955818" lon="7.7179403"><ele>220.0</ele><time>2026-04-18T10:03:31.94Z</time></trkpt><trkpt lat="45.0956459" lon="7.7179752"><ele>220.14285714285714</ele><time>2026-04-18T10:03:36.966Z</time></trkpt><trkpt lat="45.0957008" lon="7.7180269"><ele>220.28571428571428</ele><time>2026-04-18T10:03:41.05Z</time></trkpt><trkpt lat="45.0957499" lon="7.7180841"><ele>220.42857142857144</ele><time>2026-04-18T10:03:46.969Z</time></trkpt><trkpt lat="45.0958106" lon="7.7181495"><ele>220.57142857142856</ele><time>2026-04-18T10:03:51.017Z</time></trkpt><trkpt lat="45.0958792" lon="7.7181944"><ele>220.71428571428572</ele><time>2026-04-18T10:03:55.974Z</time></trkpt><trkpt lat="45.0959411" lon="7.7182504"><ele>220.85714285714286</ele><time>2026-04-18T10:04:01.972Z</time></trkpt><trkpt lat="45.0959897" lon="7.7183072"><ele>221.0</ele><time>2026-04-18T10:04:06.051Z</time></trkpt><trkpt lat="45.0960445" lon="7.7183914"><ele>220.42857142857144</ele><time>2026-04-18T10:04:11.988Z</time></trkpt><trkpt lat="45.096095" lon="7.7184699"><ele>219.85714285714286</ele><time>2026-04-18T10:04:18.969Z</time></trkpt><trkpt lat="45.0961391" lon="7.7185436"><ele>219.28571428571428</ele><time>2026-04-18T10:04:23.035Z</time></trkpt><trkpt lat="45.0961866" lon="7.7186305"><ele>218.71428571428572</ele><time>2026-04-18T10:04:27.989Z</time></trkpt><trkpt lat="45.0962357" lon="7.7187179"><ele>218.14285714285714</ele><time>2026-04-18T10:04:33.975Z</time></trkpt><trkpt lat="45.0962805" lon="7.718789"><ele>217.57142857142858</ele><time>2026-04-18T10:04:38.025Z</time></trkpt><trkpt lat="45.09632" lon="7.7188711"><ele>217.0</ele><time>2026-04-18T10:04:42.968Z</time></trkpt><trkpt lat="45.0963564" lon="7.7189496"><ele>216.57142857142858</ele><time>2026-04-18T10:04:47.989Z</time></trkpt><trkpt lat="45.0963992" lon="7.7190414"><ele>216.14285714285714</ele><time>2026-04-18T10:04:52.989Z</time></trkpt><trkpt lat="45.0964525" lon="7.7191048"><ele>215.71428571428572</ele><time>2026-04-18T10:04:57.969Z</time></trkpt><trkpt lat="45.0964915" lon="7.7191829"><ele>215.28571428571428</ele><time>2026-04-18T10:05:01.355Z</time></trkpt><trkpt lat="45.0965342" lon="7.7192543"><ele>214.85714285714286</ele><time>2026-04-18T10:05:04.968Z</time></trkpt><trkpt lat="45.0965824" lon="7.7193362"><ele>214.42857142857144</ele><time>2026-04-18T10:05:08.968Z</time></trkpt><trkpt lat="45.0966434" lon="7.7194031"><ele>214.0</ele><time>2026-04-18T10:05:16Z</time></trkpt><trkpt lat="45.0966931" lon="7.7194637"><ele>214.00000000000003</ele><time>2026-04-18T10:05:20.971Z</time></trkpt><trkpt lat="45.0967382" lon="7.719531"><ele>214.0</ele><time>2026-04-18T10:05:25.969Z</time></trkpt><trkpt lat="45.0967924" lon="7.7196005"><ele>214.0</ele><time>2026-04-18T10:05:31.972Z</time></trkpt><trkpt lat="45.0968504" lon="7.7196699"><ele>214.0</ele><time>2026-04-18T10:05:37.967Z</time></trkpt><trkpt lat="45.0969067" lon="7.7197375"><ele>214.0</ele><time>2026-04-18T10:05:43.052Z</time></trkpt><trkpt lat="45.096958" lon="7.7198179"><ele>214.00000000000003</ele><time>2026-04-18T10:05:48.971Z</time></trkpt><trkpt lat="45.0970033" lon="7.7198823"><ele>214.0</ele><time>2026-04-18T10:05:52.97Z</time></trkpt><trkpt lat="45.0970507" lon="7.7199474"><ele>214.00000000000003</ele><time>2026-04-18T10:05:56.892Z</time></trkpt><trkpt lat="45.0970992" lon="7.7200205"><ele>214.0</ele><time>2026-04-18T10:06:01.969Z</time></trkpt><trkpt lat="45.0971457" lon="7.7200953"><ele>214.0</ele><time>2026-04-18T10:06:07.048Z</time></trkpt><trkpt lat="45.097207" lon="7.720172"><ele>214.0</ele><time>2026-04-18T10:06:13.019Z</time></trkpt><trkpt lat="45.0972555" lon="7.7202306"><ele>214.0</ele><time>2026-04-18T10:06:18.971Z</time></trkpt><trkpt lat="45.0973076" lon="7.7202943"><ele>214.00000000000003</ele><time>2026-04-18T10:06:23.022Z</time></trkpt><trkpt lat="45.097362" lon="7.7203668"><ele>214.0</ele><time>2026-04-18T10:06:28.974Z</time></trkpt><trkpt lat="45.0974162" lon="7.7204436"><ele>213.71428571428572</ele><time>2026-04-18T10:06:33.988Z</time></trkpt><trkpt lat="45.0974663" lon="7.720519"><ele>213.42857142857144</ele><time>2026-04-18T10:06:40.029Z</time></trkpt><trkpt lat="45.0975254" lon="7.7205978"><ele>213.14285714285717</ele><time>2026-04-18T10:06:44.973Z</time></trkpt><trkpt lat="45.097581" lon="7.7206671"><ele>212.85714285714286</ele><time>2026-04-18T10:06:50.97Z</time></trkpt><trkpt lat="45.0976392" lon="7.7207369"><ele>212.57142857142856</ele><time>2026-04-18T10:06:55.971Z</time></trkpt><trkpt lat="45.0976845" lon="7.720804"><ele>212.2857142857143</ele><time>2026-04-18T10:07:00.969Z</time></trkpt><trkpt lat="45.0977398" lon="7.720872"><ele>212.0</ele><time>2026-04-18T10:07:06.969Z</time></trkpt><trkpt lat="45.097682" lon="7.7209147"><ele>212.00000000000003</ele><time>2026-04-18T10:07:12.988Z</time></trkpt><trkpt lat="45.0977568" lon="7.7209088"><ele>212.0</ele><time>2026-04-18T10:09:30.969Z</time></trkpt><trkpt lat="45.0978266" lon="7.7209187"><ele>212.0</ele><time>2026-04-18T10:09:53.968Z</time></trkpt><trkpt lat="45.0976894" lon="7.7208808"><ele>212.0</ele><time>2026-04-18T10:09:57.97Z</time></trkpt><trkpt lat="45.0976127" lon="7.7208858"><ele>212.00000000000003</ele><time>2026-04-18T10:10:20.968Z</time></trkpt><trkpt lat="45.0975851" lon="7.7209771"><ele>212.0</ele><time>2026-04-18T10:11:51.97Z</time></trkpt><trkpt lat="45.0975212" lon="7.7210137"><ele>211.85714285714286</ele><time>2026-04-18T10:11:58.972Z</time></trkpt><trkpt lat="45.0974712" lon="7.7210934"><ele>211.7142857142857</ele><time>2026-04-18T10:12:12.855Z</time></trkpt><trkpt lat="45.0974231" lon="7.7211562"><ele>211.57142857142856</ele><time>2026-04-18T10:12:18.973Z</time></trkpt><trkpt lat="45.0973681" lon="7.721214"><ele>211.42857142857144</ele><time>2026-04-18T10:12:23.97Z</time></trkpt><trkpt lat="45.0973162" lon="7.7212649"><ele>211.28571428571428</ele><time>2026-04-18T10:12:28.973Z</time></trkpt><trkpt lat="45.0972614" lon="7.7213141"><ele>211.14285714285714</ele><time>2026-04-18T10:12:33.969Z</time></trkpt><trkpt lat="45.0971977" lon="7.7213622"><ele>211.0</ele><time>2026-04-18T10:12:39.97Z</time></trkpt><trkpt lat="45.0971403" lon="7.7214151"><ele>211.33333333333331</ele><time>2026-04-18T10:12:45.966Z</time></trkpt><trkpt lat="45.0970747" lon="7.7214613"><ele>211.66666666666666</ele><time>2026-04-18T10:12:50.952Z</time></trkpt><trkpt lat="45.0970004" lon="7.7215089"><ele>212.0</ele><time>2026-04-18T10:12:56.892Z</time></trkpt><trkpt lat="45.0969328" lon="7.7215502"><ele>212.33333333333331</ele><time>2026-04-18T10:13:01.966Z</time></trkpt><trkpt lat="45.0968675" lon="7.7215981"><ele>212.66666666666666</ele><time>2026-04-18T10:13:06.958Z</time></trkpt><trkpt lat="45.0967995" lon="7.721646"><ele>213.0</ele><time>2026-04-18T10:13:11.971Z</time></trkpt><trkpt lat="45.0967343" lon="7.7216886"><ele>212.99999999999997</ele><time>2026-04-18T10:13:16.969Z</time></trkpt><trkpt lat="45.0966755" lon="7.7217215"><ele>213.0</ele><time>2026-04-18T10:13:21.968Z</time></trkpt><trkpt lat="45.0966116" lon="7.7217673"><ele>213.0</ele><time>2026-04-18T10:13:27.971Z</time></trkpt><trkpt lat="45.0965455" lon="7.7218109"><ele>213.0</ele><time>2026-04-18T10:13:33.967Z</time></trkpt><trkpt lat="45.0964874" lon="7.7218624"><ele>213.0</ele><time>2026-04-18T10:13:38.967Z</time></trkpt><trkpt lat="45.0964307" lon="7.7219156"><ele>212.99999999999997</ele><time>2026-04-18T10:13:43.965Z</time></trkpt><trkpt lat="45.0963719" lon="7.7219636"><ele>213.0</ele><time>2026-04-18T10:13:48.995Z</time></trkpt><trkpt lat="45.0963148" lon="7.7220125"><ele>212.57142857142856</ele><time>2026-04-18T10:13:53.929Z</time></trkpt><trkpt lat="45.0962532" lon="7.7220618"><ele>212.14285714285714</ele><time>2026-04-18T10:13:58.988Z</time></trkpt><trkpt lat="45.096197" lon="7.7221151"><ele>211.71428571428572</ele><time>2026-04-18T10:14:03.989Z</time></trkpt><trkpt lat="45.0961421" lon="7.7221618"><ele>211.28571428571428</ele><time>2026-04-18T10:14:08.965Z</time></trkpt><trkpt lat="45.0960887" lon="7.7222123"><ele>210.85714285714286</ele><time>2026-04-18T10:14:13.965Z</time></trkpt><trkpt lat="45.0960335" lon="7.7222608"><ele>210.42857142857142</ele><time>2026-04-18T10:14:18.967Z</time></trkpt><trkpt lat="45.095972" lon="7.7223142"><ele>210.0</ele><time>2026-04-18T10:14:24.016Z</time></trkpt><trkpt lat="45.0959096" lon="7.7223653"><ele>210.0</ele><time>2026-04-18T10:14:29.965Z</time></trkpt><trkpt lat="45.095853" lon="7.722414"><ele>210.0</ele><time>2026-04-18T10:14:35.057Z</time></trkpt><trkpt lat="45.0957886" lon="7.722465"><ele>210.0</ele><time>2026-04-18T10:14:40.931Z</time></trkpt><trkpt lat="45.0957176" lon="7.7225054"><ele>210.0</ele><time>2026-04-18T10:14:46.971Z</time></trkpt><trkpt lat="45.0956549" lon="7.7225328"><ele>210.0</ele><time>2026-04-18T10:14:51.898Z</time></trkpt><trkpt lat="45.0955864" lon="7.7225488"><ele>210.0</ele><time>2026-04-18T10:14:56.967Z</time></trkpt><trkpt lat="45.0955118" lon="7.7225622"><ele>210.0</ele><time>2026-04-18T10:15:02.895Z</time></trkpt><trkpt lat="45.0954497" lon="7.7225872"><ele>209.71428571428572</ele><time>2026-04-18T10:15:07.968Z</time></trkpt><trkpt lat="45.0953973" lon="7.7226369"><ele>209.42857142857144</ele><time>2026-04-18T10:15:13.017Z</time></trkpt><trkpt lat="45.0953412" lon="7.7227107"><ele>209.14285714285714</ele><time>2026-04-18T10:15:18.889Z</time></trkpt><trkpt lat="45.0952937" lon="7.7227706"><ele>208.85714285714286</ele><time>2026-04-18T10:15:24.552Z</time></trkpt><trkpt lat="45.0952395" lon="7.722842"><ele>208.57142857142858</ele><time>2026-04-18T10:15:29.968Z</time></trkpt><trkpt lat="45.095183" lon="7.722889"><ele>208.28571428571428</ele><time>2026-04-18T10:15:35.036Z</time></trkpt><trkpt lat="45.0951186" lon="7.7229056"><ele>208.0</ele><time>2026-04-18T10:15:40.052Z</time></trkpt><trkpt lat="45.0950454" lon="7.722882"><ele>208.0</ele><time>2026-04-18T10:15:45.966Z</time></trkpt><trkpt lat="45.094984" lon="7.7228234"><ele>208.0</ele><time>2026-04-18T10:15:50.966Z</time></trkpt><trkpt lat="45.0949381" lon="7.72275"><ele>208.0</ele><time>2026-04-18T10:15:55.97Z</time></trkpt><trkpt lat="45.0948955" lon="7.7226669"><ele>208.0</ele><time>2026-04-18T10:16:01.966Z</time></trkpt><trkpt lat="45.0948587" lon="7.7225792"><ele>208.0</ele><time>2026-04-18T10:16:07.965Z</time></trkpt><trkpt lat="45.0948239" lon="7.72249"><ele>208.0</ele><time>2026-04-18T10:16:13.964Z</time></trkpt><trkpt lat="45.0947892" lon="7.7224076"><ele>208.0</ele><time>2026-04-18T10:16:19.034Z</time></trkpt><trkpt lat="45.0947534" lon="7.7223247"><ele>208.0</ele><time>2026-04-18T10:16:23.997Z</time></trkpt><trkpt lat="45.0947125" lon="7.7222372"><ele>208.0</ele><time>2026-04-18T10:16:29.982Z</time></trkpt><trkpt lat="45.0946797" lon="7.7221581"><ele>208.0</ele><time>2026-04-18T10:16:35.965Z</time></trkpt><trkpt lat="45.0946422" lon="7.7220782"><ele>208.0</ele><time>2026-04-18T10:16:40.966Z</time></trkpt><trkpt lat="45.0946011" lon="7.7220005"><ele>208.0</ele><time>2026-04-18T10:16:46.011Z</time></trkpt><trkpt lat="45.0945633" lon="7.721922"><ele>208.0</ele><time>2026-04-18T10:16:51.038Z</time></trkpt><trkpt lat="45.0945138" lon="7.7218515"><ele>208.0</ele><time>2026-04-18T10:16:56.967Z</time></trkpt><trkpt lat="45.0944636" lon="7.7217809"><ele>208.14285714285714</ele><time>2026-04-18T10:17:01.997Z</time></trkpt><trkpt lat="45.0944139" lon="7.7217054"><ele>208.2857142857143</ele><time>2026-04-18T10:17:06.872Z</time></trkpt><trkpt lat="45.0943658" lon="7.7216328"><ele>208.42857142857144</ele><time>2026-04-18T10:17:11.966Z</time></trkpt><trkpt lat="45.0943139" lon="7.721562"><ele>208.57142857142856</ele><time>2026-04-18T10:17:16.966Z</time></trkpt><trkpt lat="45.0942647" lon="7.7214955"><ele>208.71428571428572</ele><time>2026-04-18T10:17:21.935Z</time></trkpt><trkpt lat="45.0942168" lon="7.7214339"><ele>208.85714285714286</ele><time>2026-04-18T10:17:25.982Z</time></trkpt><trkpt lat="45.0941586" lon="7.7213793"><ele>209.0</ele><time>2026-04-18T10:17:30.968Z</time></trkpt><trkpt lat="45.0941013" lon="7.7213333"><ele>209.0</ele><time>2026-04-18T10:17:35.987Z</time></trkpt><trkpt lat="45.0940462" lon="7.7212824"><ele>209.0</ele><time>2026-04-18T10:17:41.015Z</time></trkpt><trkpt lat="45.0939909" lon="7.7212159"><ele>209.0</ele><time>2026-04-18T10:17:47.095Z</time></trkpt><trkpt lat="45.0939451" lon="7.721134"><ele>209.0</ele><time>2026-04-18T10:17:55.965Z</time></trkpt><trkpt lat="45.0939104" lon="7.7210493"><ele>209.0</ele><time>2026-04-18T10:18:01.032Z</time></trkpt><trkpt lat="45.0938744" lon="7.7209622"><ele>209.0</ele><time>2026-04-18T10:18:07.03Z</time></trkpt><trkpt lat="45.0938405" lon="7.7208841"><ele>209.0</ele><time>2026-04-18T10:18:12.654Z</time></trkpt><trkpt lat="45.0938055" lon="7.7208071"><ele>209.0</ele><time>2026-04-18T10:18:17.967Z</time></trkpt><trkpt lat="45.0937755" lon="7.7207241"><ele>209.0</ele><time>2026-04-18T10:18:22.966Z</time></trkpt><trkpt lat="45.0937363" lon="7.7206427"><ele>209.0</ele><time>2026-04-18T10:18:28.969Z</time></trkpt><trkpt lat="45.0936981" lon="7.7205701"><ele>209.0</ele><time>2026-04-18T10:18:34.039Z</time></trkpt><trkpt lat="45.0936611" lon="7.7204901"><ele>209.0</ele><time>2026-04-18T10:18:40.068Z</time></trkpt><trkpt lat="45.0936183" lon="7.7204154"><ele>209.0</ele><time>2026-04-18T10:18:45.964Z</time></trkpt><trkpt lat="45.0935728" lon="7.7203532"><ele>209.0</ele><time>2026-04-18T10:18:50.967Z</time></trkpt><trkpt lat="45.0935161" lon="7.7202926"><ele>209.28571428571428</ele><time>2026-04-18T10:18:56.969Z</time></trkpt><trkpt lat="45.0934449" lon="7.720222"><ele>209.57142857142856</ele><time>2026-04-18T10:19:03.03Z</time></trkpt><trkpt lat="45.0933817" lon="7.7201804"><ele>209.85714285714286</ele><time>2026-04-18T10:19:07.966Z</time></trkpt><trkpt lat="45.0933141" lon="7.7201562"><ele>210.14285714285714</ele><time>2026-04-18T10:19:12.966Z</time></trkpt><trkpt lat="45.0932402" lon="7.720135"><ele>210.42857142857144</ele><time>2026-04-18T10:19:17.965Z</time></trkpt><trkpt lat="45.0931737" lon="7.7201224"><ele>210.71428571428572</ele><time>2026-04-18T10:19:22.97Z</time></trkpt><trkpt lat="45.0931101" lon="7.7201116"><ele>211.0</ele><time>2026-04-18T10:19:27.981Z</time></trkpt><trkpt lat="45.0930449" lon="7.7201057"><ele>212.71428571428572</ele><time>2026-04-18T10:19:33.043Z</time></trkpt><trkpt lat="45.0929731" lon="7.7201095"><ele>214.42857142857144</ele><time>2026-04-18T10:19:38.893Z</time></trkpt><trkpt lat="45.0929044" lon="7.7201079"><ele>216.14285714285714</ele><time>2026-04-18T10:19:44.912Z</time></trkpt><trkpt lat="45.0928388" lon="7.7200918"><ele>217.85714285714286</ele><time>2026-04-18T10:19:49.971Z</time></trkpt><trkpt lat="45.0927723" lon="7.7200682"><ele>219.57142857142856</ele><time>2026-04-18T10:19:54.97Z</time></trkpt><trkpt lat="45.0927054" lon="7.7200523"><ele>221.28571428571428</ele><time>2026-04-18T10:19:59.918Z</time></trkpt><trkpt lat="45.0926411" lon="7.7200307"><ele>223.0</ele><time>2026-04-18T10:20:04.967Z</time></trkpt><trkpt lat="45.0925775" lon="7.7200046"><ele>223.0</ele><time>2026-04-18T10:20:10.028Z</time></trkpt><trkpt lat="45.0925147" lon="7.7199807"><ele>223.0</ele><time>2026-04-18T10:20:14.993Z</time></trkpt><trkpt lat="45.0924467" lon="7.7199552"><ele>223.0</ele><time>2026-04-18T10:20:20.966Z</time></trkpt><trkpt lat="45.0923793" lon="7.7199299"><ele>223.0</ele><time>2026-04-18T10:20:25.953Z</time></trkpt><trkpt lat="45.0923136" lon="7.7198991"><ele>223.0</ele><time>2026-04-18T10:20:30.965Z</time></trkpt><trkpt lat="45.0922433" lon="7.7198621"><ele>223.0</ele><time>2026-04-18T10:20:35.966Z</time></trkpt><trkpt lat="45.0921764" lon="7.7198204"><ele>223.0</ele><time>2026-04-18T10:20:40.95Z</time></trkpt><trkpt lat="45.0921097" lon="7.7197757"><ele>221.85714285714286</ele><time>2026-04-18T10:20:45.968Z</time></trkpt><trkpt lat="45.0920473" lon="7.7197409"><ele>220.71428571428572</ele><time>2026-04-18T10:20:50.977Z</time></trkpt><trkpt lat="45.0919871" lon="7.7197107"><ele>219.57142857142856</ele><time>2026-04-18T10:20:55.966Z</time></trkpt><trkpt lat="45.0919233" lon="7.7196816"><ele>218.42857142857144</ele><time>2026-04-18T10:21:00.96Z</time></trkpt><trkpt lat="45.091859" lon="7.7196537"><ele>217.2857142857143</ele><time>2026-04-18T10:21:05.968Z</time></trkpt><trkpt lat="45.0917971" lon="7.7196251"><ele>216.14285714285714</ele><time>2026-04-18T10:21:10.966Z</time></trkpt><trkpt lat="45.0917314" lon="7.7196056"><ele>215.0</ele><time>2026-04-18T10:21:15.97Z</time></trkpt><trkpt lat="45.091658" lon="7.7195847"><ele>215.0</ele><time>2026-04-18T10:21:20.955Z</time></trkpt><trkpt lat="45.0915918" lon="7.7195592"><ele>215.0</ele><time>2026-04-18T10:21:25.956Z</time></trkpt><trkpt lat="45.091527" lon="7.719534"><ele>215.0</ele><time>2026-04-18T10:21:30.967Z</time></trkpt><trkpt lat="45.09146" lon="7.7195083"><ele>215.0</ele><time>2026-04-18T10:21:35.974Z</time></trkpt><trkpt lat="45.0913904" lon="7.7194854"><ele>215.0</ele><time>2026-04-18T10:21:41.968Z</time></trkpt><trkpt lat="45.0913208" lon="7.7194647"><ele>215.0</ele><time>2026-04-18T10:21:46.914Z</time></trkpt><trkpt lat="45.0912577" lon="7.7194489"><ele>215.0</ele><time>2026-04-18T10:21:50.966Z</time></trkpt><trkpt lat="45.0911902" lon="7.7194215"><ele>214.85714285714286</ele><time>2026-04-18T10:21:55.957Z</time></trkpt><trkpt lat="45.0911186" lon="7.719408"><ele>214.71428571428572</ele><time>2026-04-18T10:22:02.027Z</time></trkpt><trkpt lat="45.0910469" lon="7.7193809"><ele>214.57142857142858</ele><time>2026-04-18T10:22:08.054Z</time></trkpt><trkpt lat="45.0909846" lon="7.7193542"><ele>214.42857142857144</ele><time>2026-04-18T10:22:12.967Z</time></trkpt><trkpt lat="45.0909181" lon="7.7193306"><ele>214.28571428571428</ele><time>2026-04-18T10:22:18.046Z</time></trkpt><trkpt lat="45.0908486" lon="7.7193061"><ele>214.14285714285717</ele><time>2026-04-18T10:22:23.882Z</time></trkpt><trkpt lat="45.0907834" lon="7.7192861"><ele>214.0</ele><time>2026-04-18T10:22:29.968Z</time></trkpt><trkpt lat="45.0907155" lon="7.7192554"><ele>214.00000000000003</ele><time>2026-04-18T10:22:35.967Z</time></trkpt><trkpt lat="45.0906484" lon="7.7192246"><ele>214.0</ele><time>2026-04-18T10:22:41.047Z</time></trkpt><trkpt lat="45.0905775" lon="7.7192028"><ele>214.0</ele><time>2026-04-18T10:22:46.967Z</time></trkpt><trkpt lat="45.0905076" lon="7.7191802"><ele>214.0</ele><time>2026-04-18T10:22:52.97Z</time></trkpt><trkpt lat="45.0904437" lon="7.7191696"><ele>214.0</ele><time>2026-04-18T10:22:57.872Z</time></trkpt><trkpt lat="45.090382" lon="7.71913"><ele>214.00000000000003</ele><time>2026-04-18T10:23:02.97Z</time></trkpt><trkpt lat="45.0903138" lon="7.7191005"><ele>214.0</ele><time>2026-04-18T10:23:08.97Z</time></trkpt><trkpt lat="45.0902438" lon="7.7190721"><ele>214.00000000000003</ele><time>2026-04-18T10:23:14.984Z</time></trkpt><trkpt lat="45.0901799" lon="7.7190421"><ele>214.0</ele><time>2026-04-18T10:23:20.07Z</time></trkpt><trkpt lat="45.090112" lon="7.719016"><ele>214.0</ele><time>2026-04-18T10:23:25.9Z</time></trkpt><trkpt lat="45.0900472" lon="7.7189974"><ele>214.0</ele><time>2026-04-18T10:23:30.966Z</time></trkpt><trkpt lat="45.0899784" lon="7.7189731"><ele>214.0</ele><time>2026-04-18T10:23:36.031Z</time></trkpt><trkpt lat="45.089899" lon="7.7189502"><ele>214.00000000000003</ele><time>2026-04-18T10:23:41.965Z</time></trkpt><trkpt lat="45.0898322" lon="7.7189236"><ele>214.0</ele><time>2026-04-18T10:23:46.967Z</time></trkpt><trkpt lat="45.0897604" lon="7.7188979"><ele>214.14285714285717</ele><time>2026-04-18T10:23:52.018Z</time></trkpt><trkpt lat="45.0896896" lon="7.7188739"><ele>214.28571428571428</ele><time>2026-04-18T10:23:57.985Z</time></trkpt><trkpt lat="45.0896283" lon="7.7188511"><ele>214.42857142857144</ele><time>2026-04-18T10:24:02.555Z</time></trkpt><trkpt lat="45.0895689" lon="7.71881"><ele>214.57142857142858</ele><time>2026-04-18T10:24:07.965Z</time></trkpt><trkpt lat="45.0895095" lon="7.7187751"><ele>214.71428571428572</ele><time>2026-04-18T10:24:12.975Z</time></trkpt><trkpt lat="45.0894496" lon="7.7187327"><ele>214.85714285714286</ele><time>2026-04-18T10:24:18.073Z</time></trkpt><trkpt lat="45.0893759" lon="7.7187161"><ele>215.0</ele><time>2026-04-18T10:24:23.636Z</time></trkpt><trkpt lat="45.0893128" lon="7.718682"><ele>215.0</ele><time>2026-04-18T10:24:29.881Z</time></trkpt><trkpt lat="45.0892534" lon="7.7186473"><ele>215.0</ele><time>2026-04-18T10:24:35.015Z</time></trkpt><trkpt lat="45.0891872" lon="7.7186172"><ele>215.0</ele><time>2026-04-18T10:24:40.966Z</time></trkpt><trkpt lat="45.0891194" lon="7.7185969"><ele>215.0</ele><time>2026-04-18T10:24:46.879Z</time></trkpt><trkpt lat="45.0890517" lon="7.7185913"><ele>215.0</ele><time>2026-04-18T10:24:52.963Z</time></trkpt><trkpt lat="45.0889838" lon="7.7185874"><ele>215.0</ele><time>2026-04-18T10:24:57.969Z</time></trkpt><trkpt lat="45.0889088" lon="7.7185843"><ele>215.0</ele><time>2026-04-18T10:25:03.967Z</time></trkpt><trkpt lat="45.0892534" lon="7.7186473"><ele>215.0</ele><time>2026-04-18T10:24:35.015Z</time></trkpt><trkpt lat="45.0891872" lon="7.7186172"><ele>215.0</ele><time>2026-04-18T10:24:40.966Z</time></trkpt><trkpt lat="45.0891194" lon="7.7185969"><ele>215.0</ele><time>2026-04-18T10:24:46.879Z</time></trkpt><trkpt lat="45.0890517" lon="7.7185913"><ele>215.0</ele><time>2026-04-18T10:24:52.963Z</time></trkpt><trkpt lat="45.0889838" lon="7.7185874"><ele>215.0</ele><time>2026-04-18T10:24:57.969Z</time></trkpt><trkpt lat="45.0889088" lon="7.7185843"><ele>215.0</ele><time>2026-04-18T10:25:03.967Z</time></trkpt><trkpt lat="45.0888322" lon="7.7185851"><ele>215.0</ele><time>2026-04-18T10:25:09.966Z</time></trkpt><trkpt lat="45.0887576" lon="7.7185771"><ele>214.85714285714286</ele><time>2026-04-18T10:25:15.965Z</time></trkpt><trkpt lat="45.0886918" lon="7.7185782"><ele>214.71428571428572</ele><time>2026-04-18T10:25:20.965Z</time></trkpt><trkpt lat="45.0886245" lon="7.7185766"><ele>214.57142857142858</ele><time>2026-04-18T10:25:25.964Z</time></trkpt><trkpt lat="45.088559" lon="7.7185857"><ele>214.42857142857144</ele><time>2026-04-18T10:25:30.97Z</time></trkpt><trkpt lat="45.0884919" lon="7.7185772"><ele>214.28571428571428</ele><time>2026-04-18T10:25:35.969Z</time></trkpt><trkpt lat="45.088427" lon="7.7185773"><ele>214.14285714285717</ele><time>2026-04-18T10:25:40.89Z</time></trkpt><trkpt lat="45.0883603" lon="7.7185941"><ele>214.0</ele><time>2026-04-18T10:25:45.958Z</time></trkpt><trkpt lat="45.0882954" lon="7.7186167"><ele>214.00000000000003</ele><time>2026-04-18T10:25:50.963Z</time></trkpt><trkpt lat="45.0882298" lon="7.7186253"><ele>214.0</ele><time>2026-04-18T10:25:55.963Z</time></trkpt><trkpt lat="45.0881627" lon="7.7186256"><ele>214.0</ele><time>2026-04-18T10:26:00.963Z</time></trkpt><trkpt lat="45.0880987" lon="7.7186335"><ele>214.0</ele><time>2026-04-18T10:26:05.994Z</time></trkpt><trkpt lat="45.0880308" lon="7.718641"><ele>214.0</ele><time>2026-04-18T10:26:10.994Z</time></trkpt><trkpt lat="45.0879673" lon="7.7186343"><ele>214.00000000000003</ele><time>2026-04-18T10:26:15.949Z</time></trkpt><trkpt lat="45.087894" lon="7.7186347"><ele>214.0</ele><time>2026-04-18T10:26:22.016Z</time></trkpt><trkpt lat="45.0878204" lon="7.7186318"><ele>214.00000000000003</ele><time>2026-04-18T10:26:27.964Z</time></trkpt><trkpt lat="45.0877566" lon="7.7186331"><ele>214.0</ele><time>2026-04-18T10:26:32.965Z</time></trkpt><trkpt lat="45.0876833" lon="7.7186318"><ele>214.0</ele><time>2026-04-18T10:26:38.963Z</time></trkpt><trkpt lat="45.087612" lon="7.7186109"><ele>214.0</ele><time>2026-04-18T10:26:44.896Z</time></trkpt><trkpt lat="45.0875444" lon="7.7186073"><ele>214.0</ele><time>2026-04-18T10:26:50.963Z</time></trkpt><trkpt lat="45.0874707" lon="7.7186182"><ele>214.00000000000003</ele><time>2026-04-18T10:26:56.965Z</time></trkpt><trkpt lat="45.0873967" lon="7.7186345"><ele>214.0</ele><time>2026-04-18T10:27:02.97Z</time></trkpt><trkpt lat="45.0873208" lon="7.7186409"><ele>214.00000000000003</ele><time>2026-04-18T10:27:08.974Z</time></trkpt><trkpt lat="45.0872564" lon="7.7186406"><ele>214.0</ele><time>2026-04-18T10:27:13.974Z</time></trkpt><trkpt lat="45.0871828" lon="7.718644"><ele>214.0</ele><time>2026-04-18T10:27:19.971Z</time></trkpt><trkpt lat="45.0871173" lon="7.7186333"><ele>214.0</ele><time>2026-04-18T10:27:24.967Z</time></trkpt><trkpt lat="45.0870427" lon="7.7186209"><ele>214.0</ele><time>2026-04-18T10:27:30.95Z</time></trkpt><trkpt lat="45.0869696" lon="7.7186157"><ele>214.00000000000003</ele><time>2026-04-18T10:27:40.971Z</time></trkpt><trkpt lat="45.0868972" lon="7.7186156"><ele>214.0</ele><time>2026-04-18T10:27:49.964Z</time></trkpt><trkpt lat="45.086829" lon="7.7186349"><ele>214.00000000000003</ele><time>2026-04-18T10:27:56.911Z</time></trkpt><trkpt lat="45.0867611" lon="7.7186586"><ele>214.0</ele><time>2026-04-18T10:28:03.972Z</time></trkpt><trkpt lat="45.0866906" lon="7.7186684"><ele>214.0</ele><time>2026-04-18T10:28:09.964Z</time></trkpt><trkpt lat="45.0866117" lon="7.718674"><ele>214.0</ele><time>2026-04-18T10:28:16.982Z</time></trkpt><trkpt lat="45.0865464" lon="7.7186963"><ele>214.0</ele><time>2026-04-18T10:28:22.963Z</time></trkpt><trkpt lat="45.0864756" lon="7.7187124"><ele>214.00000000000003</ele><time>2026-04-18T10:28:29.01Z</time></trkpt><trkpt lat="45.08641" lon="7.7187263"><ele>214.0</ele><time>2026-04-18T10:28:34.966Z</time></trkpt><trkpt lat="45.0863411" lon="7.7187504"><ele>214.14285714285717</ele><time>2026-04-18T10:28:38.965Z</time></trkpt><trkpt lat="45.0862691" lon="7.7187821"><ele>214.28571428571428</ele><time>2026-04-18T10:28:43.968Z</time></trkpt><trkpt lat="45.0862017" lon="7.7188043"><ele>214.42857142857144</ele><time>2026-04-18T10:28:48.963Z</time></trkpt><trkpt lat="45.0861305" lon="7.7188374"><ele>214.57142857142858</ele><time>2026-04-18T10:28:53.969Z</time></trkpt><trkpt lat="45.0860682" lon="7.7188743"><ele>214.71428571428572</ele><time>2026-04-18T10:28:58.975Z</time></trkpt><trkpt lat="45.0859961" lon="7.718908"><ele>214.85714285714286</ele><time>2026-04-18T10:29:03.963Z</time></trkpt><trkpt lat="45.0859257" lon="7.7189394"><ele>215.0</ele><time>2026-04-18T10:29:08.962Z</time></trkpt><trkpt lat="45.0858586" lon="7.7189716"><ele>215.0</ele><time>2026-04-18T10:29:13.964Z</time></trkpt><trkpt lat="45.0857899" lon="7.7190097"><ele>215.0</ele><time>2026-04-18T10:29:19.919Z</time></trkpt><trkpt lat="45.0857319" lon="7.7190444"><ele>215.0</ele><time>2026-04-18T10:29:24.967Z</time></trkpt><trkpt lat="45.0856697" lon="7.7190721"><ele>215.0</ele><time>2026-04-18T10:29:29.964Z</time></trkpt><trkpt lat="45.0856115" lon="7.7191069"><ele>215.0</ele><time>2026-04-18T10:29:34.88Z</time></trkpt><trkpt lat="45.0855482" lon="7.7191391"><ele>215.0</ele><time>2026-04-18T10:29:39.969Z</time></trkpt><trkpt lat="45.0854789" lon="7.7191785"><ele>215.0</ele><time>2026-04-18T10:29:45.972Z</time></trkpt><trkpt lat="45.0854192" lon="7.7192149"><ele>214.7142857142857</ele><time>2026-04-18T10:29:50.962Z</time></trkpt><trkpt lat="45.0853601" lon="7.7192478"><ele>214.42857142857144</ele><time>2026-04-18T10:29:55.965Z</time></trkpt><trkpt lat="45.0852966" lon="7.7192735"><ele>214.14285714285714</ele><time>2026-04-18T10:30:00.913Z</time></trkpt><trkpt lat="45.0852296" lon="7.7193309"><ele>213.85714285714283</ele><time>2026-04-18T10:30:06.963Z</time></trkpt><trkpt lat="45.0851783" lon="7.7193838"><ele>213.57142857142856</ele><time>2026-04-18T10:30:12.962Z</time></trkpt><trkpt lat="45.0851104" lon="7.7194058"><ele>213.28571428571428</ele><time>2026-04-18T10:30:17.868Z</time></trkpt><trkpt lat="45.0850532" lon="7.7194587"><ele>213.0</ele><time>2026-04-18T10:30:23.964Z</time></trkpt><trkpt lat="45.0849965" lon="7.7195129"><ele>212.85714285714283</ele><time>2026-04-18T10:30:29.964Z</time></trkpt><trkpt lat="45.0849306" lon="7.7195457"><ele>212.71428571428572</ele><time>2026-04-18T10:30:35.97Z</time></trkpt><trkpt lat="45.0848729" lon="7.7195814"><ele>212.57142857142856</ele><time>2026-04-18T10:30:41.965Z</time></trkpt><trkpt lat="45.0848086" lon="7.7196"><ele>212.42857142857142</ele><time>2026-04-18T10:30:47.965Z</time></trkpt><trkpt lat="45.0847492" lon="7.719632"><ele>212.28571428571428</ele><time>2026-04-18T10:30:53.965Z</time></trkpt><trkpt lat="45.0846908" lon="7.7196759"><ele>212.14285714285714</ele><time>2026-04-18T10:30:59.89Z</time></trkpt><trkpt lat="45.0846255" lon="7.7196962"><ele>212.0</ele><time>2026-04-18T10:31:05.963Z</time></trkpt><trkpt lat="45.0845543" lon="7.7197338"><ele>212.42857142857144</ele><time>2026-04-18T10:31:11.966Z</time></trkpt><trkpt lat="45.0844884" lon="7.7197738"><ele>212.85714285714283</ele><time>2026-04-18T10:31:17.979Z</time></trkpt><trkpt lat="45.0844232" lon="7.7198159"><ele>213.28571428571428</ele><time>2026-04-18T10:31:23.963Z</time></trkpt><trkpt lat="45.0843553" lon="7.7198584"><ele>213.71428571428572</ele><time>2026-04-18T10:31:29.981Z</time></trkpt><trkpt lat="45.0842892" lon="7.7198921"><ele>214.14285714285717</ele><time>2026-04-18T10:31:35.965Z</time></trkpt><trkpt lat="45.0842329" lon="7.7199357"><ele>214.57142857142856</ele><time>2026-04-18T10:31:40.963Z</time></trkpt><trkpt lat="45.0841641" lon="7.7199798"><ele>215.0</ele><time>2026-04-18T10:31:45.962Z</time></trkpt><trkpt lat="45.0841004" lon="7.7200171"><ele>214.85714285714286</ele><time>2026-04-18T10:31:50.966Z</time></trkpt><trkpt lat="45.0840312" lon="7.7200556"><ele>214.71428571428572</ele><time>2026-04-18T10:31:56.988Z</time></trkpt><trkpt lat="45.0839603" lon="7.7200971"><ele>214.57142857142858</ele><time>2026-04-18T10:32:03.015Z</time></trkpt><trkpt lat="45.0838894" lon="7.7201367"><ele>214.42857142857144</ele><time>2026-04-18T10:32:08.969Z</time></trkpt><trkpt lat="45.0838257" lon="7.7201633"><ele>214.28571428571428</ele><time>2026-04-18T10:32:13.962Z</time></trkpt><trkpt lat="45.0837651" lon="7.7201976"><ele>214.14285714285717</ele><time>2026-04-18T10:32:18.967Z</time></trkpt><trkpt lat="45.0836979" lon="7.7202178"><ele>214.0</ele><time>2026-04-18T10:32:24.964Z</time></trkpt><trkpt lat="45.0836361" lon="7.7202533"><ele>214.00000000000003</ele><time>2026-04-18T10:32:30.966Z</time></trkpt><trkpt lat="45.0835746" lon="7.7202819"><ele>214.0</ele><time>2026-04-18T10:32:36.967Z</time></trkpt><trkpt lat="45.0835109" lon="7.7203191"><ele>214.0</ele><time>2026-04-18T10:32:43.965Z</time></trkpt><trkpt lat="45.0834539" lon="7.7203595"><ele>214.0</ele><time>2026-04-18T10:32:49.963Z</time></trkpt><trkpt lat="45.0833921" lon="7.7203853"><ele>214.0</ele><time>2026-04-18T10:32:55.87Z</time></trkpt><trkpt lat="45.0833326" lon="7.720431"><ele>214.00000000000003</ele><time>2026-04-18T10:33:02.968Z</time></trkpt><trkpt lat="45.0832674" lon="7.7204664"><ele>214.0</ele><time>2026-04-18T10:33:08.963Z</time></trkpt><trkpt lat="45.0832062" lon="7.7205079"><ele>214.00000000000003</ele><time>2026-04-18T10:33:13.966Z</time></trkpt><trkpt lat="45.0831427" lon="7.7205495"><ele>214.0</ele><time>2026-04-18T10:33:18.965Z</time></trkpt><trkpt lat="45.0830868" lon="7.7205995"><ele>214.0</ele><time>2026-04-18T10:33:23.963Z</time></trkpt><trkpt lat="45.0830235" lon="7.7206459"><ele>214.0</ele><time>2026-04-18T10:33:29.894Z</time></trkpt><trkpt lat="45.0829611" lon="7.7206856"><ele>214.0</ele><time>2026-04-18T10:33:35.962Z</time></trkpt><trkpt lat="45.0829068" lon="7.720746"><ele>214.00000000000003</ele><time>2026-04-18T10:33:41.877Z</time></trkpt><trkpt lat="45.0828508" lon="7.7208002"><ele>214.0</ele><time>2026-04-18T10:33:46.915Z</time></trkpt><trkpt lat="45.0827904" lon="7.7208534"><ele>214.00000000000003</ele><time>2026-04-18T10:33:52.974Z</time></trkpt><trkpt lat="45.0827363" lon="7.7208996"><ele>214.0</ele><time>2026-04-18T10:33:57.891Z</time></trkpt><trkpt lat="45.0826777" lon="7.7209524"><ele>214.0</ele><time>2026-04-18T10:34:02.967Z</time></trkpt><trkpt lat="45.0826152" lon="7.7209986"><ele>214.0</ele><time>2026-04-18T10:34:08.933Z</time></trkpt><trkpt lat="45.0825605" lon="7.7210646"><ele>214.0</ele><time>2026-04-18T10:34:14.963Z</time></trkpt><trkpt lat="45.0825071" lon="7.721115"><ele>214.00000000000003</ele><time>2026-04-18T10:34:19.965Z</time></trkpt><trkpt lat="45.0824519" lon="7.7211655"><ele>214.0</ele><time>2026-04-18T10:34:25.964Z</time></trkpt><trkpt lat="45.0823928" lon="7.7212023"><ele>214.14285714285717</ele><time>2026-04-18T10:34:30.954Z</time></trkpt><trkpt lat="45.0823312" lon="7.7212591"><ele>214.28571428571428</ele><time>2026-04-18T10:34:35.992Z</time></trkpt><trkpt lat="45.0822798" lon="7.7213107"><ele>214.42857142857144</ele><time>2026-04-18T10:34:41.001Z</time></trkpt><trkpt lat="45.082224" lon="7.7213689"><ele>214.57142857142858</ele><time>2026-04-18T10:34:45.981Z</time></trkpt><trkpt lat="45.0821671" lon="7.7214314"><ele>214.71428571428572</ele><time>2026-04-18T10:34:50.963Z</time></trkpt><trkpt lat="45.0821155" lon="7.7214853"><ele>214.85714285714286</ele><time>2026-04-18T10:34:55.962Z</time></trkpt><trkpt lat="45.0820593" lon="7.7215453"><ele>215.0</ele><time>2026-04-18T10:35:01.96Z</time></trkpt><trkpt lat="45.0819976" lon="7.7215953"><ele>215.0</ele><time>2026-04-18T10:35:08.972Z</time></trkpt><trkpt lat="45.0819331" lon="7.72164"><ele>215.0</ele><time>2026-04-18T10:35:14.965Z</time></trkpt><trkpt lat="45.0818782" lon="7.7216936"><ele>215.0</ele><time>2026-04-18T10:35:20.971Z</time></trkpt><trkpt lat="45.0818249" lon="7.7217474"><ele>215.0</ele><time>2026-04-18T10:35:26.963Z</time></trkpt><trkpt lat="45.0817725" lon="7.7218014"><ele>215.0</ele><time>2026-04-18T10:35:32.963Z</time></trkpt><trkpt lat="45.081717" lon="7.7218606"><ele>215.0</ele><time>2026-04-18T10:35:38.95Z</time></trkpt><trkpt lat="45.0816637" lon="7.7219081"><ele>215.0</ele><time>2026-04-18T10:35:43.962Z</time></trkpt><trkpt lat="45.0816072" lon="7.7219481"><ele>214.85714285714286</ele><time>2026-04-18T10:35:48.968Z</time></trkpt><trkpt lat="45.0815526" lon="7.7220152"><ele>214.71428571428572</ele><time>2026-04-18T10:35:54.964Z</time></trkpt><trkpt lat="45.0814912" lon="7.7220672"><ele>214.57142857142858</ele><time>2026-04-18T10:36:00.964Z</time></trkpt><trkpt lat="45.0814337" lon="7.7221196"><ele>214.42857142857144</ele><time>2026-04-18T10:36:06.966Z</time></trkpt><trkpt lat="45.0813823" lon="7.7221724"><ele>214.28571428571428</ele><time>2026-04-18T10:36:11.951Z</time></trkpt><trkpt lat="45.0813213" lon="7.7222243"><ele>214.14285714285717</ele><time>2026-04-18T10:36:17.965Z</time></trkpt><trkpt lat="45.0812547" lon="7.7222724"><ele>214.0</ele><time>2026-04-18T10:36:23.963Z</time></trkpt><trkpt lat="45.0811988" lon="7.7223253"><ele>214.00000000000003</ele><time>2026-04-18T10:36:28.964Z</time></trkpt><trkpt lat="45.0811453" lon="7.7223764"><ele>214.0</ele><time>2026-04-18T10:36:33.996Z</time></trkpt><trkpt lat="45.0810935" lon="7.722428"><ele>214.0</ele><time>2026-04-18T10:36:38.875Z</time></trkpt><trkpt lat="45.0810315" lon="7.7224837"><ele>214.0</ele><time>2026-04-18T10:36:44.898Z</time></trkpt><trkpt lat="45.0809784" lon="7.7225321"><ele>214.0</ele><time>2026-04-18T10:36:49.964Z</time></trkpt><trkpt lat="45.0809213" lon="7.7225791"><ele>214.00000000000003</ele><time>2026-04-18T10:36:54.962Z</time></trkpt><trkpt lat="45.0808632" lon="7.7226382"><ele>214.0</ele><time>2026-04-18T10:36:59.997Z</time></trkpt><trkpt lat="45.0808032" lon="7.7226946"><ele>214.14285714285717</ele><time>2026-04-18T10:37:04.962Z</time></trkpt><trkpt lat="45.0807378" lon="7.7227259"><ele>214.28571428571428</ele><time>2026-04-18T10:37:09.951Z</time></trkpt><trkpt lat="45.0806782" lon="7.7227707"><ele>214.42857142857144</ele><time>2026-04-18T10:37:14.89Z</time></trkpt><trkpt lat="45.0806228" lon="7.7228337"><ele>214.57142857142858</ele><time>2026-04-18T10:37:19.96Z</time></trkpt><trkpt lat="45.0805619" lon="7.7228929"><ele>214.71428571428572</ele><time>2026-04-18T10:37:24.935Z</time></trkpt><trkpt lat="45.0805061" lon="7.7229402"><ele>214.85714285714286</ele><time>2026-04-18T10:37:28.966Z</time></trkpt><trkpt lat="45.0804486" lon="7.7229959"><ele>215.0</ele><time>2026-04-18T10:37:33.962Z</time></trkpt><trkpt lat="45.0803928" lon="7.7230499"><ele>215.28571428571428</ele><time>2026-04-18T10:37:38.969Z</time></trkpt><trkpt lat="45.0803333" lon="7.723099"><ele>215.57142857142858</ele><time>2026-04-18T10:37:43.954Z</time></trkpt><trkpt lat="45.0802739" lon="7.7231643"><ele>215.85714285714286</ele><time>2026-04-18T10:37:48.961Z</time></trkpt><trkpt lat="45.0802172" lon="7.7232266"><ele>216.14285714285714</ele><time>2026-04-18T10:37:53.963Z</time></trkpt><trkpt lat="45.0801589" lon="7.7232834"><ele>216.42857142857144</ele><time>2026-04-18T10:37:58.865Z</time></trkpt><trkpt lat="45.0800972" lon="7.7233287"><ele>216.71428571428572</ele><time>2026-04-18T10:38:03.962Z</time></trkpt><trkpt lat="45.0800381" lon="7.7233777"><ele>217.0</ele><time>2026-04-18T10:38:08.972Z</time></trkpt><trkpt lat="45.0799816" lon="7.7234289"><ele>217.0</ele><time>2026-04-18T10:38:13.898Z</time></trkpt><trkpt lat="45.0799264" lon="7.7234924"><ele>217.0</ele><time>2026-04-18T10:38:18.962Z</time></trkpt><trkpt lat="45.0798723" lon="7.723548"><ele>217.0</ele><time>2026-04-18T10:38:23.962Z</time></trkpt><trkpt lat="45.0798191" lon="7.723598"><ele>217.0</ele><time>2026-04-18T10:38:28.96Z</time></trkpt><trkpt lat="45.079764" lon="7.7236488"><ele>217.0</ele><time>2026-04-18T10:38:36.038Z</time></trkpt><trkpt lat="45.0797041" lon="7.7236871"><ele>217.0</ele><time>2026-04-18T10:38:41.961Z</time></trkpt><trkpt lat="45.079641" lon="7.7237351"><ele>217.0</ele><time>2026-04-18T10:38:47.966Z</time></trkpt><trkpt lat="45.0795814" lon="7.7237846"><ele>217.0</ele><time>2026-04-18T10:38:53.008Z</time></trkpt><trkpt lat="45.0795293" lon="7.7238353"><ele>217.0</ele><time>2026-04-18T10:38:57.895Z</time></trkpt><trkpt lat="45.079472" lon="7.7239047"><ele>217.0</ele><time>2026-04-18T10:39:03.963Z</time></trkpt><trkpt lat="45.0794142" lon="7.7239541"><ele>217.0</ele><time>2026-04-18T10:39:09.015Z</time></trkpt><trkpt lat="45.0793577" lon="7.7240006"><ele>217.0</ele><time>2026-04-18T10:39:13.989Z</time></trkpt><trkpt lat="45.0792898" lon="7.7240474"><ele>217.0</ele><time>2026-04-18T10:39:19.97Z</time></trkpt><trkpt lat="45.0792305" lon="7.7240928"><ele>217.0</ele><time>2026-04-18T10:39:24.961Z</time></trkpt><trkpt lat="45.0791729" lon="7.7241483"><ele>217.0</ele><time>2026-04-18T10:39:30.96Z</time></trkpt><trkpt lat="45.0791124" lon="7.7242054"><ele>217.0</ele><time>2026-04-18T10:39:37.02Z</time></trkpt><trkpt lat="45.0790549" lon="7.7242536"><ele>217.0</ele><time>2026-04-18T10:39:42.011Z</time></trkpt><trkpt lat="45.0790021" lon="7.7243022"><ele>217.0</ele><time>2026-04-18T10:39:46.962Z</time></trkpt><trkpt lat="45.0789396" lon="7.7243326"><ele>217.0</ele><time>2026-04-18T10:39:51.952Z</time></trkpt><trkpt lat="45.0788717" lon="7.7243533"><ele>217.0</ele><time>2026-04-18T10:39:56.977Z</time></trkpt><trkpt lat="45.0787991" lon="7.7243436"><ele>217.0</ele><time>2026-04-18T10:40:03.959Z</time></trkpt><trkpt lat="45.0787382" lon="7.7243142"><ele>216.85714285714286</ele><time>2026-04-18T10:40:09.875Z</time></trkpt><trkpt lat="45.0786697" lon="7.7242798"><ele>216.71428571428572</ele><time>2026-04-18T10:40:15.961Z</time></trkpt><trkpt lat="45.0785937" lon="7.7242634"><ele>216.57142857142856</ele><time>2026-04-18T10:40:20.958Z</time></trkpt><trkpt lat="45.0785211" lon="7.7242374"><ele>216.42857142857144</ele><time>2026-04-18T10:40:25.963Z</time></trkpt><trkpt lat="45.0784665" lon="7.7241849"><ele>216.28571428571428</ele><time>2026-04-18T10:40:30.962Z</time></trkpt><trkpt lat="45.0784161" lon="7.724129"><ele>216.14285714285714</ele><time>2026-04-18T10:40:35.874Z</time></trkpt><trkpt lat="45.0783692" lon="7.7240694"><ele>216.0</ele><time>2026-04-18T10:40:40.963Z</time></trkpt><trkpt lat="45.078321" lon="7.7240099"><ele>216.14285714285714</ele><time>2026-04-18T10:40:45.961Z</time></trkpt><trkpt lat="45.0782672" lon="7.7239404"><ele>216.28571428571428</ele><time>2026-04-18T10:40:51.962Z</time></trkpt><trkpt lat="45.0782175" lon="7.7238645"><ele>216.42857142857144</ele><time>2026-04-18T10:40:57.96Z</time></trkpt><trkpt lat="45.0781739" lon="7.7237909"><ele>216.57142857142856</ele><time>2026-04-18T10:41:02.964Z</time></trkpt><trkpt lat="45.0781347" lon="7.723709"><ele>216.71428571428572</ele><time>2026-04-18T10:41:07.963Z</time></trkpt><trkpt lat="45.0781028" lon="7.7236203"><ele>216.85714285714286</ele><time>2026-04-18T10:41:12.935Z</time></trkpt><trkpt lat="45.0780814" lon="7.7235304"><ele>217.0</ele><time>2026-04-18T10:41:17.974Z</time></trkpt><trkpt lat="45.0780638" lon="7.723441"><ele>217.0</ele><time>2026-04-18T10:41:22.966Z</time></trkpt><trkpt lat="45.0780461" lon="7.7233377"><ele>217.0</ele><time>2026-04-18T10:41:28.97Z</time></trkpt><trkpt lat="45.0780252" lon="7.7232479"><ele>217.0</ele><time>2026-04-18T10:41:33.96Z</time></trkpt><trkpt lat="45.0780059" lon="7.7231555"><ele>217.0</ele><time>2026-04-18T10:41:38.97Z</time></trkpt><trkpt lat="45.077978" lon="7.7230655"><ele>217.0</ele><time>2026-04-18T10:41:43.959Z</time></trkpt><trkpt lat="45.077961" lon="7.7229721"><ele>217.0</ele><time>2026-04-18T10:41:48.98Z</time></trkpt><trkpt lat="45.07794" lon="7.7228737"><ele>217.0</ele><time>2026-04-18T10:41:53.959Z</time></trkpt><trkpt lat="45.0779087" lon="7.7227761"><ele>217.0</ele><time>2026-04-18T10:41:58.962Z</time></trkpt><trkpt lat="45.0778826" lon="7.7226892"><ele>217.0</ele><time>2026-04-18T10:42:03.866Z</time></trkpt><trkpt lat="45.0778609" lon="7.7225974"><ele>217.0</ele><time>2026-04-18T10:42:08.98Z</time></trkpt><trkpt lat="45.0778364" lon="7.7225029"><ele>217.0</ele><time>2026-04-18T10:42:13.978Z</time></trkpt><trkpt lat="45.0778096" lon="7.7224102"><ele>217.0</ele><time>2026-04-18T10:42:18.968Z</time></trkpt><trkpt lat="45.0777885" lon="7.7223203"><ele>217.0</ele><time>2026-04-18T10:42:23.962Z</time></trkpt><trkpt lat="45.0777632" lon="7.7222294"><ele>217.0</ele><time>2026-04-18T10:42:28.967Z</time></trkpt><trkpt lat="45.0777341" lon="7.7221379"><ele>217.0</ele><time>2026-04-18T10:42:33.936Z</time></trkpt><trkpt lat="45.077707" lon="7.7220462"><ele>217.0</ele><time>2026-04-18T10:42:38.962Z</time></trkpt><trkpt lat="45.0776825" lon="7.7219554"><ele>217.0</ele><time>2026-04-18T10:42:43.961Z</time></trkpt><trkpt lat="45.0776581" lon="7.7218521"><ele>217.0</ele><time>2026-04-18T10:42:49.018Z</time></trkpt><trkpt lat="45.0776231" lon="7.7217694"><ele>217.0</ele><time>2026-04-18T10:42:53.963Z</time></trkpt><trkpt lat="45.0776049" lon="7.7216687"><ele>217.0</ele><time>2026-04-18T10:42:59.962Z</time></trkpt><trkpt lat="45.0775662" lon="7.7217482"><ele>217.0</ele><time>2026-04-18T10:43:18.968Z</time></trkpt><trkpt lat="45.0775102" lon="7.7217907"><ele>216.85714285714286</ele><time>2026-04-18T10:43:22.96Z</time></trkpt><trkpt lat="45.0774462" lon="7.7218448"><ele>216.71428571428572</ele><time>2026-04-18T10:43:28.997Z</time></trkpt><trkpt lat="45.0773807" lon="7.7218423"><ele>216.57142857142856</ele><time>2026-04-18T10:43:33.967Z</time></trkpt><trkpt lat="45.0773183" lon="7.7218634"><ele>216.42857142857144</ele><time>2026-04-18T10:43:39.963Z</time></trkpt><trkpt lat="45.0772478" lon="7.721886"><ele>216.28571428571428</ele><time>2026-04-18T10:43:45.969Z</time></trkpt><trkpt lat="45.0771902" lon="7.7219507"><ele>216.14285714285714</ele><time>2026-04-18T10:43:54.96Z</time></trkpt><trkpt lat="45.0771236" lon="7.7219251"><ele>216.0</ele><time>2026-04-18T10:43:59.961Z</time></trkpt><trkpt lat="45.0770734" lon="7.7219823"><ele>217.0</ele><time>2026-04-18T10:44:04.898Z</time></trkpt><trkpt lat="45.077071" lon="7.7220839"><ele>218.0</ele><time>2026-04-18T10:44:10.959Z</time></trkpt><trkpt lat="45.0770598" lon="7.7221828"><ele>219.0</ele><time>2026-04-18T10:44:15.957Z</time></trkpt><trkpt lat="45.0770589" lon="7.7223021"><ele>220.0</ele><time>2026-04-18T10:44:21.966Z</time></trkpt><trkpt lat="45.0770915" lon="7.7223959"><ele>221.0</ele><time>2026-04-18T10:44:27.961Z</time></trkpt><trkpt lat="45.0771147" lon="7.7224899"><ele>222.0</ele><time>2026-04-18T10:44:33.958Z</time></trkpt><trkpt lat="45.0771334" lon="7.7225783"><ele>223.0</ele><time>2026-04-18T10:44:39.908Z</time></trkpt><trkpt lat="45.0771492" lon="7.7226708"><ele>222.71428571428572</ele><time>2026-04-18T10:44:45.914Z</time></trkpt><trkpt lat="45.0771786" lon="7.7227608"><ele>222.42857142857142</ele><time>2026-04-18T10:44:51.941Z</time></trkpt><trkpt lat="45.0772062" lon="7.7228633"><ele>222.14285714285717</ele><time>2026-04-18T10:44:57.965Z</time></trkpt><trkpt lat="45.0772231" lon="7.7229599"><ele>221.85714285714286</ele><time>2026-04-18T10:45:04.961Z</time></trkpt><trkpt lat="45.0772399" lon="7.7230573"><ele>221.57142857142858</ele><time>2026-04-18T10:45:11.962Z</time></trkpt><trkpt lat="45.0772497" lon="7.7231606"><ele>221.2857142857143</ele><time>2026-04-18T10:45:17.959Z</time></trkpt><trkpt lat="45.0772604" lon="7.7232591"><ele>221.0</ele><time>2026-04-18T10:45:21.967Z</time></trkpt><trkpt lat="45.0772737" lon="7.7233603"><ele>221.00000000000003</ele><time>2026-04-18T10:45:25.968Z</time></trkpt><trkpt lat="45.0772934" lon="7.7234525"><ele>221.0</ele><time>2026-04-18T10:45:30.96Z</time></trkpt><trkpt lat="45.0773067" lon="7.7235404"><ele>221.0</ele><time>2026-04-18T10:45:34.937Z</time></trkpt><trkpt lat="45.0773315" lon="7.7236524"><ele>221.0</ele><time>2026-04-18T10:45:39.962Z</time></trkpt><trkpt lat="45.0773729" lon="7.7237419"><ele>221.0</ele><time>2026-04-18T10:45:45.976Z</time></trkpt><trkpt lat="45.0774346" lon="7.7237998"><ele>221.00000000000003</ele><time>2026-04-18T10:45:52.97Z</time></trkpt><trkpt lat="45.0774709" lon="7.7238775"><ele>221.0</ele><time>2026-04-18T10:45:58.026Z</time></trkpt><trkpt lat="45.0775098" lon="7.7239619"><ele>221.00000000000003</ele><time>2026-04-18T10:46:02.96Z</time></trkpt><trkpt lat="45.077539" lon="7.7240521"><ele>221.0</ele><time>2026-04-18T10:46:07.963Z</time></trkpt><trkpt lat="45.0775706" lon="7.7241389"><ele>221.0</ele><time>2026-04-18T10:46:12.96Z</time></trkpt><trkpt lat="45.0776016" lon="7.7242166"><ele>221.0</ele><time>2026-04-18T10:46:18.966Z</time></trkpt><trkpt lat="45.077634" lon="7.7242932"><ele>221.0</ele><time>2026-04-18T10:46:23.966Z</time></trkpt><trkpt lat="45.077661" lon="7.724398"><ele>221.00000000000003</ele><time>2026-04-18T10:46:29.962Z</time></trkpt><trkpt lat="45.0776749" lon="7.7245006"><ele>221.0</ele><time>2026-04-18T10:46:35.963Z</time></trkpt><trkpt lat="45.0776826" lon="7.7245986"><ele>221.00000000000003</ele><time>2026-04-18T10:46:41.962Z</time></trkpt><trkpt lat="45.077677" lon="7.7247083"><ele>221.0</ele><time>2026-04-18T10:46:46.978Z</time></trkpt><trkpt lat="45.077676" lon="7.7248014"><ele>221.0</ele><time>2026-04-18T10:46:50.96Z</time></trkpt><trkpt lat="45.0776889" lon="7.724895"><ele>221.0</ele><time>2026-04-18T10:46:53.96Z</time></trkpt><trkpt lat="45.0776831" lon="7.7249895"><ele>221.0</ele><time>2026-04-18T10:46:57.95Z</time></trkpt><trkpt lat="45.0776428" lon="7.7250789"><ele>221.00000000000003</ele><time>2026-04-18T10:47:02.962Z</time></trkpt><trkpt lat="45.0775999" lon="7.7251487"><ele>221.0</ele><time>2026-04-18T10:47:07.011Z</time></trkpt><trkpt lat="45.0775569" lon="7.7252148"><ele>220.71428571428572</ele><time>2026-04-18T10:47:10.963Z</time></trkpt><trkpt lat="45.0775133" lon="7.7252801"><ele>220.42857142857144</ele><time>2026-04-18T10:47:15.962Z</time></trkpt><trkpt lat="45.0774624" lon="7.7253447"><ele>220.14285714285717</ele><time>2026-04-18T10:47:20.893Z</time></trkpt><trkpt lat="45.077408" lon="7.7254153"><ele>219.85714285714286</ele><time>2026-04-18T10:47:25.967Z</time></trkpt><trkpt lat="45.0773576" lon="7.7254947"><ele>219.57142857142856</ele><time>2026-04-18T10:47:30.986Z</time></trkpt><trkpt lat="45.077308" lon="7.7255527"><ele>219.2857142857143</ele><time>2026-04-18T10:47:35.963Z</time></trkpt><trkpt lat="45.0772433" lon="7.7256101"><ele>219.0</ele><time>2026-04-18T10:47:40.961Z</time></trkpt><trkpt lat="45.0771812" lon="7.7256521"><ele>219.2857142857143</ele><time>2026-04-18T10:47:44.82Z</time></trkpt><trkpt lat="45.0771228" lon="7.7257116"><ele>219.57142857142856</ele><time>2026-04-18T10:47:49.958Z</time></trkpt><trkpt lat="45.0770623" lon="7.7257551"><ele>219.85714285714286</ele><time>2026-04-18T10:47:53.87Z</time></trkpt><trkpt lat="45.0770058" lon="7.725838"><ele>220.14285714285717</ele><time>2026-04-18T10:47:58.965Z</time></trkpt><trkpt lat="45.0769575" lon="7.7259007"><ele>220.42857142857144</ele><time>2026-04-18T10:48:03.963Z</time></trkpt><trkpt lat="45.0769052" lon="7.7259614"><ele>220.71428571428572</ele><time>2026-04-18T10:48:08.959Z</time></trkpt><trkpt lat="45.0768494" lon="7.7260077"><ele>221.0</ele><time>2026-04-18T10:48:12.978Z</time></trkpt><trkpt lat="45.0767801" lon="7.7260738"><ele>221.00000000000003</ele><time>2026-04-18T10:48:19.964Z</time></trkpt><trkpt lat="45.0767001" lon="7.7261267"><ele>221.0</ele><time>2026-04-18T10:48:25.985Z</time></trkpt><trkpt lat="45.0766476" lon="7.7261871"><ele>221.0</ele><time>2026-04-18T10:48:30.957Z</time></trkpt><trkpt lat="45.076596" lon="7.7262398"><ele>221.0</ele><time>2026-04-18T10:48:34.963Z</time></trkpt><trkpt lat="45.0765433" lon="7.7263131"><ele>221.0</ele><time>2026-04-18T10:48:39.958Z</time></trkpt><trkpt lat="45.0764846" lon="7.7263773"><ele>221.00000000000003</ele><time>2026-04-18T10:48:44.96Z</time></trkpt><trkpt lat="45.0764209" lon="7.7264251"><ele>221.0</ele><time>2026-04-18T10:48:49.959Z</time></trkpt><trkpt lat="45.0763697" lon="7.726489"><ele>221.2857142857143</ele><time>2026-04-18T10:48:54.969Z</time></trkpt><trkpt lat="45.0763159" lon="7.7265416"><ele>221.57142857142858</ele><time>2026-04-18T10:48:59.96Z</time></trkpt><trkpt lat="45.0762576" lon="7.7265906"><ele>221.85714285714286</ele><time>2026-04-18T10:49:04.957Z</time></trkpt><trkpt lat="45.0761925" lon="7.7266435"><ele>222.14285714285717</ele><time>2026-04-18T10:49:09.959Z</time></trkpt><trkpt lat="45.0761324" lon="7.7266782"><ele>222.42857142857142</ele><time>2026-04-18T10:49:13.952Z</time></trkpt><trkpt lat="45.0760703" lon="7.7267159"><ele>222.71428571428572</ele><time>2026-04-18T10:49:18.973Z</time></trkpt><trkpt lat="45.0760068" lon="7.7267463"><ele>223.0</ele><time>2026-04-18T10:49:23.958Z</time></trkpt><trkpt lat="45.0759535" lon="7.7268188"><ele>223.0</ele><time>2026-04-18T10:49:28.973Z</time></trkpt><trkpt lat="45.0758977" lon="7.7268764"><ele>223.0</ele><time>2026-04-18T10:49:33.958Z</time></trkpt><trkpt lat="45.0758416" lon="7.7269427"><ele>223.0</ele><time>2026-04-18T10:49:38.962Z</time></trkpt><trkpt lat="45.0757871" lon="7.7270053"><ele>223.0</ele><time>2026-04-18T10:49:43.898Z</time></trkpt><trkpt lat="45.075729" lon="7.727052"><ele>223.0</ele><time>2026-04-18T10:49:48.956Z</time></trkpt><trkpt lat="45.0756729" lon="7.7271079"><ele>223.0</ele><time>2026-04-18T10:49:53.963Z</time></trkpt><trkpt lat="45.0756198" lon="7.7271604"><ele>223.0</ele><time>2026-04-18T10:49:58.948Z</time></trkpt><trkpt lat="45.0755662" lon="7.7272175"><ele>222.57142857142856</ele><time>2026-04-18T10:50:03.964Z</time></trkpt><trkpt lat="45.075516" lon="7.72728"><ele>222.14285714285714</ele><time>2026-04-18T10:50:09.031Z</time></trkpt><trkpt lat="45.0754564" lon="7.7273489"><ele>221.71428571428572</ele><time>2026-04-18T10:50:15.958Z</time></trkpt><trkpt lat="45.0753929" lon="7.7273983"><ele>221.28571428571428</ele><time>2026-04-18T10:50:22.956Z</time></trkpt><trkpt lat="45.0753275" lon="7.7274292"><ele>220.85714285714286</ele><time>2026-04-18T10:50:28.893Z</time></trkpt><trkpt lat="45.0752919" lon="7.7275149"><ele>220.42857142857142</ele><time>2026-04-18T10:50:35.958Z</time></trkpt><trkpt lat="45.0752955" lon="7.7276044"><ele>220.0</ele><time>2026-04-18T10:50:42.026Z</time></trkpt><trkpt lat="45.0753112" lon="7.7277051"><ele>219.7142857142857</ele><time>2026-04-18T10:50:49.032Z</time></trkpt><trkpt lat="45.0753106" lon="7.7278095"><ele>219.42857142857142</ele><time>2026-04-18T10:50:55.028Z</time></trkpt><trkpt lat="45.0753175" lon="7.72792"><ele>219.14285714285714</ele><time>2026-04-18T10:51:00.907Z</time></trkpt><trkpt lat="45.0753239" lon="7.7280247"><ele>218.85714285714283</ele><time>2026-04-18T10:51:07.958Z</time></trkpt><trkpt lat="45.0753319" lon="7.7281195"><ele>218.57142857142858</ele><time>2026-04-18T10:51:16.011Z</time></trkpt><trkpt lat="45.0753405" lon="7.7282095"><ele>218.28571428571428</ele><time>2026-04-18T10:51:20.973Z</time></trkpt><trkpt lat="45.0753397" lon="7.7283135"><ele>218.0</ele><time>2026-04-18T10:51:26.96Z</time></trkpt><trkpt lat="45.0753381" lon="7.7284092"><ele>218.0</ele><time>2026-04-18T10:51:32.031Z</time></trkpt><trkpt lat="45.0753354" lon="7.7284994"><ele>218.0</ele><time>2026-04-18T10:51:36.959Z</time></trkpt><trkpt lat="45.0753325" lon="7.7286171"><ele>218.0</ele><time>2026-04-18T10:51:44.969Z</time></trkpt><trkpt lat="45.0753333" lon="7.7287066"><ele>218.0</ele><time>2026-04-18T10:51:48.963Z</time></trkpt><trkpt lat="45.0753377" lon="7.728801"><ele>218.0</ele><time>2026-04-18T10:51:54.024Z</time></trkpt><trkpt lat="45.0753001" lon="7.728877"><ele>218.0</ele><time>2026-04-18T10:51:59.009Z</time></trkpt><trkpt lat="45.0752688" lon="7.7289621"><ele>218.0</ele><time>2026-04-18T10:52:05.984Z</time></trkpt><trkpt lat="45.075206" lon="7.72899"><ele>218.0</ele><time>2026-04-18T10:52:11.974Z</time></trkpt><trkpt lat="45.0751335" lon="7.729013"><ele>218.0</ele><time>2026-04-18T10:52:17.958Z</time></trkpt><trkpt lat="45.0750658" lon="7.728996"><ele>218.0</ele><time>2026-04-18T10:52:24.029Z</time></trkpt><trkpt lat="45.0749991" lon="7.7289764"><ele>218.0</ele><time>2026-04-18T10:52:31.04Z</time></trkpt><trkpt lat="45.0749356" lon="7.7289619"><ele>218.0</ele><time>2026-04-18T10:52:36.957Z</time></trkpt><trkpt lat="45.0748691" lon="7.7289443"><ele>218.0</ele><time>2026-04-18T10:52:43.016Z</time></trkpt><trkpt lat="45.0748004" lon="7.7289228"><ele>218.0</ele><time>2026-04-18T10:52:51.011Z</time></trkpt><trkpt lat="45.0747248" lon="7.7289136"><ele>218.42857142857144</ele><time>2026-04-18T10:52:58.012Z</time></trkpt><trkpt lat="45.0746476" lon="7.7288921"><ele>218.85714285714286</ele><time>2026-04-18T10:53:03.834Z</time></trkpt><trkpt lat="45.0745791" lon="7.7288593"><ele>219.28571428571428</ele><time>2026-04-18T10:53:09.938Z</time></trkpt><trkpt lat="45.074523" lon="7.7288164"><ele>219.71428571428572</ele><time>2026-04-18T10:53:15.363Z</time></trkpt><trkpt lat="45.0744676" lon="7.7287698"><ele>220.14285714285714</ele><time>2026-04-18T10:53:20.959Z</time></trkpt><trkpt lat="45.0744028" lon="7.7287235"><ele>220.57142857142858</ele><time>2026-04-18T10:53:26.028Z</time></trkpt><trkpt lat="45.0743361" lon="7.7286829"><ele>221.0</ele><time>2026-04-18T10:53:31.96Z</time></trkpt><trkpt lat="45.0742711" lon="7.728652"><ele>221.00000000000003</ele><time>2026-04-18T10:53:36.961Z</time></trkpt><trkpt lat="45.0742106" lon="7.7286199"><ele>221.0</ele><time>2026-04-18T10:53:41.96Z</time></trkpt><trkpt lat="45.0741443" lon="7.7285871"><ele>221.0</ele><time>2026-04-18T10:53:47.092Z</time></trkpt><trkpt lat="45.0740722" lon="7.7285599"><ele>221.0</ele><time>2026-04-18T10:53:52.697Z</time></trkpt><trkpt lat="45.0740023" lon="7.7285241"><ele>221.0</ele><time>2026-04-18T10:53:57.96Z</time></trkpt><trkpt lat="45.073933" lon="7.7284826"><ele>221.00000000000003</ele><time>2026-04-18T10:54:03.956Z</time></trkpt><trkpt lat="45.0738738" lon="7.728445"><ele>221.0</ele><time>2026-04-18T10:54:08.956Z</time></trkpt><trkpt lat="45.0738143" lon="7.7284132"><ele>220.14285714285717</ele><time>2026-04-18T10:54:13.995Z</time></trkpt><trkpt lat="45.0737546" lon="7.7283826"><ele>219.28571428571428</ele><time>2026-04-18T10:54:18.916Z</time></trkpt><trkpt lat="45.0736927" lon="7.728341"><ele>218.42857142857144</ele><time>2026-04-18T10:54:23.975Z</time></trkpt><trkpt lat="45.0736249" lon="7.7282919"><ele>217.57142857142858</ele><time>2026-04-18T10:54:29.962Z</time></trkpt><trkpt lat="45.0735467" lon="7.728281"><ele>216.71428571428572</ele><time>2026-04-18T10:54:35.96Z</time></trkpt><trkpt lat="45.0734861" lon="7.7282428"><ele>215.85714285714286</ele><time>2026-04-18T10:54:39.914Z</time></trkpt><trkpt lat="45.0734262" lon="7.7282071"><ele>215.0</ele><time>2026-04-18T10:54:42.956Z</time></trkpt><trkpt lat="45.0733704" lon="7.7281607"><ele>215.0</ele><time>2026-04-18T10:54:46.96Z</time></trkpt><trkpt lat="45.0733352" lon="7.7280821"><ele>215.0</ele><time>2026-04-18T10:54:51.958Z</time></trkpt><trkpt lat="45.0732558" lon="7.7280663"><ele>215.0</ele><time>2026-04-18T10:54:55.962Z</time></trkpt><trkpt lat="45.0731955" lon="7.7280257"><ele>215.0</ele><time>2026-04-18T10:55:00.958Z</time></trkpt><trkpt lat="45.0731261" lon="7.7279826"><ele>215.0</ele><time>2026-04-18T10:55:05.968Z</time></trkpt><trkpt lat="45.0730585" lon="7.727938"><ele>215.0</ele><time>2026-04-18T10:55:11.013Z</time></trkpt><trkpt lat="45.072991" lon="7.7278846"><ele>215.0</ele><time>2026-04-18T10:55:16.978Z</time></trkpt><trkpt lat="45.0729334" lon="7.7278323"><ele>215.85714285714286</ele><time>2026-04-18T10:55:22.969Z</time></trkpt><trkpt lat="45.0728758" lon="7.7277873"><ele>216.71428571428572</ele><time>2026-04-18T10:55:27.936Z</time></trkpt><trkpt lat="45.0728104" lon="7.7277298"><ele>217.57142857142858</ele><time>2026-04-18T10:55:33.962Z</time></trkpt><trkpt lat="45.0727458" lon="7.7276754"><ele>218.42857142857144</ele><time>2026-04-18T10:55:38.956Z</time></trkpt><trkpt lat="45.0726856" lon="7.7276214"><ele>219.28571428571428</ele><time>2026-04-18T10:55:43.965Z</time></trkpt><trkpt lat="45.0726335" lon="7.7275684"><ele>220.14285714285717</ele><time>2026-04-18T10:55:48.95Z</time></trkpt><trkpt lat="45.0725791" lon="7.7275136"><ele>221.0</ele><time>2026-04-18T10:55:53.961Z</time></trkpt><trkpt lat="45.0725208" lon="7.7274612"><ele>221.00000000000003</ele><time>2026-04-18T10:55:58.955Z</time></trkpt><trkpt lat="45.0724636" lon="7.7274073"><ele>221.0</ele><time>2026-04-18T10:56:03.989Z</time></trkpt><trkpt lat="45.0724122" lon="7.7273525"><ele>221.0</ele><time>2026-04-18T10:56:08.957Z</time></trkpt><trkpt lat="45.0723595" lon="7.7272896"><ele>221.0</ele><time>2026-04-18T10:56:13.952Z</time></trkpt><trkpt lat="45.072309" lon="7.7272315"><ele>221.0</ele><time>2026-04-18T10:56:18.994Z</time></trkpt><trkpt lat="45.0722469" lon="7.7271662"><ele>221.00000000000003</ele><time>2026-04-18T10:56:24.961Z</time></trkpt><trkpt lat="45.0721907" lon="7.7271132"><ele>221.0</ele><time>2026-04-18T10:56:29.957Z</time></trkpt><trkpt lat="45.0721413" lon="7.7270463"><ele>221.00000000000003</ele><time>2026-04-18T10:56:34.968Z</time></trkpt><trkpt lat="45.0720918" lon="7.7269767"><ele>221.0</ele><time>2026-04-18T10:56:39.958Z</time></trkpt><trkpt lat="45.0720188" lon="7.7269608"><ele>221.0</ele><time>2026-04-18T10:56:44.949Z</time></trkpt><trkpt lat="45.0719543" lon="7.7269648"><ele>221.0</ele><time>2026-04-18T10:56:50.962Z</time></trkpt><trkpt lat="45.0719237" lon="7.7268839"><ele>221.0</ele><time>2026-04-18T10:57:24.96Z</time></trkpt><trkpt lat="45.0719366" lon="7.7267744"><ele>221.00000000000003</ele><time>2026-04-18T10:57:31.956Z</time></trkpt><trkpt lat="45.0719136" lon="7.7266788"><ele>221.0</ele><time>2026-04-18T10:57:37.958Z</time></trkpt><trkpt lat="45.0718684" lon="7.7266126"><ele>221.00000000000003</ele><time>2026-04-18T10:57:42.914Z</time></trkpt><trkpt lat="45.0718143" lon="7.7265451"><ele>221.0</ele><time>2026-04-18T10:57:48.96Z</time></trkpt><trkpt lat="45.0717773" lon="7.7264721"><ele>221.0</ele><time>2026-04-18T10:57:53.955Z</time></trkpt><trkpt lat="45.0717404" lon="7.7263919"><ele>221.0</ele><time>2026-04-18T10:57:59.958Z</time></trkpt><trkpt lat="45.0716961" lon="7.7263101"><ele>221.0</ele><time>2026-04-18T10:58:05.956Z</time></trkpt><trkpt lat="45.0716496" lon="7.726233"><ele>221.00000000000003</ele><time>2026-04-18T10:58:11.958Z</time></trkpt><trkpt lat="45.0716036" lon="7.7261528"><ele>221.0</ele><time>2026-04-18T10:58:17.957Z</time></trkpt><trkpt lat="45.0715542" lon="7.7260741"><ele>220.42857142857144</ele><time>2026-04-18T10:58:23.956Z</time></trkpt><trkpt lat="45.0715122" lon="7.7260069"><ele>219.85714285714286</ele><time>2026-04-18T10:58:28.958Z</time></trkpt><trkpt lat="45.0714533" lon="7.7259377"><ele>219.28571428571428</ele><time>2026-04-18T10:58:34.958Z</time></trkpt><trkpt lat="45.0714026" lon="7.7258608"><ele>218.71428571428572</ele><time>2026-04-18T10:58:39.958Z</time></trkpt><trkpt lat="45.0713488" lon="7.7257835"><ele>218.14285714285714</ele><time>2026-04-18T10:58:44.956Z</time></trkpt><trkpt lat="45.0712978" lon="7.7257064"><ele>217.57142857142858</ele><time>2026-04-18T10:58:49.955Z</time></trkpt><trkpt lat="45.0712497" lon="7.7256231"><ele>217.0</ele><time>2026-04-18T10:58:53.961Z</time></trkpt><trkpt lat="45.0711949" lon="7.7255441"><ele>217.0</ele><time>2026-04-18T10:58:58.969Z</time></trkpt><trkpt lat="45.0711487" lon="7.7254676"><ele>217.0</ele><time>2026-04-18T10:59:03.957Z</time></trkpt><trkpt lat="45.0711007" lon="7.7253858"><ele>217.0</ele><time>2026-04-18T10:59:08.979Z</time></trkpt><trkpt lat="45.0710691" lon="7.7252971"><ele>217.0</ele><time>2026-04-18T10:59:13.96Z</time></trkpt><trkpt lat="45.071024" lon="7.7252319"><ele>217.0</ele><time>2026-04-18T10:59:19.964Z</time></trkpt><trkpt lat="45.0709965" lon="7.7251495"><ele>217.0</ele><time>2026-04-18T10:59:24.958Z</time></trkpt><trkpt lat="45.0709672" lon="7.7250635"><ele>217.0</ele><time>2026-04-18T10:59:34.956Z</time></trkpt><trkpt lat="45.0709328" lon="7.7249807"><ele>217.0</ele><time>2026-04-18T10:59:40.959Z</time></trkpt><trkpt lat="45.0709057" lon="7.7249"><ele>217.0</ele><time>2026-04-18T10:59:46.896Z</time></trkpt><trkpt lat="45.0708644" lon="7.7248206"><ele>217.0</ele><time>2026-04-18T10:59:53.967Z</time></trkpt><trkpt lat="45.0708108" lon="7.7247725"><ele>217.0</ele><time>2026-04-18T10:59:58.956Z</time></trkpt><trkpt lat="45.0707575" lon="7.724699"><ele>217.0</ele><time>2026-04-18T11:00:03.956Z</time></trkpt><trkpt lat="45.0707084" lon="7.7246294"><ele>217.0</ele><time>2026-04-18T11:00:08.928Z</time></trkpt><trkpt lat="45.0706681" lon="7.7245599"><ele>217.0</ele><time>2026-04-18T11:00:14.928Z</time></trkpt><trkpt lat="45.0706174" lon="7.7244824"><ele>217.28571428571428</ele><time>2026-04-18T11:00:20.995Z</time></trkpt><trkpt lat="45.0705747" lon="7.7244114"><ele>217.57142857142856</ele><time>2026-04-18T11:00:25.912Z</time></trkpt><trkpt lat="45.0705208" lon="7.7243651"><ele>217.85714285714286</ele><time>2026-04-18T11:00:30.961Z</time></trkpt><trkpt lat="45.0704748" lon="7.7242848"><ele>218.14285714285714</ele><time>2026-04-18T11:00:36.893Z</time></trkpt><trkpt lat="45.0704376" lon="7.7241927"><ele>218.42857142857142</ele><time>2026-04-18T11:00:42.961Z</time></trkpt><trkpt lat="45.0704012" lon="7.7240986"><ele>218.71428571428572</ele><time>2026-04-18T11:00:48.965Z</time></trkpt><trkpt lat="45.0703488" lon="7.7240124"><ele>219.0</ele><time>2026-04-18T11:00:54.96Z</time></trkpt><trkpt lat="45.0703192" lon="7.7239147"><ele>219.0</ele><time>2026-04-18T11:00:59.955Z</time></trkpt><trkpt lat="45.0702676" lon="7.7238377"><ele>219.0</ele><time>2026-04-18T11:01:03.957Z</time></trkpt><trkpt lat="45.0702442" lon="7.7237438"><ele>219.0</ele><time>2026-04-18T11:01:08.957Z</time></trkpt><trkpt lat="45.0702306" lon="7.7236474"><ele>219.0</ele><time>2026-04-18T11:01:13.955Z</time></trkpt><trkpt lat="45.0702467" lon="7.7235589"><ele>219.0</ele><time>2026-04-18T11:01:19.956Z</time></trkpt><trkpt lat="45.0702325" lon="7.7234552"><ele>219.0</ele><time>2026-04-18T11:01:24.971Z</time></trkpt><trkpt lat="45.0701963" lon="7.7233671"><ele>219.0</ele><time>2026-04-18T11:01:28.957Z</time></trkpt><trkpt lat="45.0701648" lon="7.7232824"><ele>219.14285714285714</ele><time>2026-04-18T11:01:32.949Z</time></trkpt><trkpt lat="45.0701302" lon="7.7231835"><ele>219.28571428571428</ele><time>2026-04-18T11:01:36.956Z</time></trkpt><trkpt lat="45.0701017" lon="7.7231018"><ele>219.42857142857142</ele><time>2026-04-18T11:01:40.888Z</time></trkpt><trkpt lat="45.070072" lon="7.7230094"><ele>219.57142857142856</ele><time>2026-04-18T11:01:44.957Z</time></trkpt><trkpt lat="45.0700337" lon="7.7229245"><ele>219.71428571428572</ele><time>2026-04-18T11:01:48.958Z</time></trkpt><trkpt lat="45.0700042" lon="7.7228289"><ele>219.85714285714283</ele><time>2026-04-18T11:01:53.958Z</time></trkpt><trkpt lat="45.0699793" lon="7.722733"><ele>220.0</ele><time>2026-04-18T11:01:58.962Z</time></trkpt><trkpt lat="45.0699575" lon="7.7226412"><ele>219.85714285714283</ele><time>2026-04-18T11:02:03.957Z</time></trkpt><trkpt lat="45.0699363" lon="7.7225485"><ele>219.71428571428572</ele><time>2026-04-18T11:02:08.958Z</time></trkpt><trkpt lat="45.0699178" lon="7.7224505"><ele>219.57142857142856</ele><time>2026-04-18T11:02:14.913Z</time></trkpt><trkpt lat="45.0698959" lon="7.7223557"><ele>219.42857142857142</ele><time>2026-04-18T11:02:19.953Z</time></trkpt><trkpt lat="45.0698711" lon="7.7222581"><ele>219.28571428571428</ele><time>2026-04-18T11:02:24.959Z</time></trkpt><trkpt lat="45.0698453" lon="7.7221543"><ele>219.14285714285714</ele><time>2026-04-18T11:02:29.957Z</time></trkpt><trkpt lat="45.0698227" lon="7.7220543"><ele>219.0</ele><time>2026-04-18T11:02:34.97Z</time></trkpt><trkpt lat="45.0697976" lon="7.7219585"><ele>219.14285714285714</ele><time>2026-04-18T11:02:39.917Z</time></trkpt><trkpt lat="45.069773" lon="7.7218613"><ele>219.28571428571428</ele><time>2026-04-18T11:02:44.958Z</time></trkpt><trkpt lat="45.0697557" lon="7.7217717"><ele>219.42857142857142</ele><time>2026-04-18T11:02:49.912Z</time></trkpt><trkpt lat="45.069736" lon="7.7216676"><ele>219.57142857142856</ele><time>2026-04-18T11:02:54.957Z</time></trkpt><trkpt lat="45.0697162" lon="7.7215777"><ele>219.71428571428572</ele><time>2026-04-18T11:02:58.909Z</time></trkpt><trkpt lat="45.0697019" lon="7.7214893"><ele>219.85714285714283</ele><time>2026-04-18T11:03:03.956Z</time></trkpt><trkpt lat="45.0696772" lon="7.7214008"><ele>220.0</ele><time>2026-04-18T11:03:08.948Z</time></trkpt><trkpt lat="45.0696588" lon="7.7212989"><ele>219.99999999999997</ele><time>2026-04-18T11:03:14.96Z</time></trkpt><trkpt lat="45.0696371" lon="7.7211954"><ele>220.0</ele><time>2026-04-18T11:03:20.956Z</time></trkpt><trkpt lat="45.0696261" lon="7.7211062"><ele>220.0</ele><time>2026-04-18T11:03:24.936Z</time></trkpt><trkpt lat="45.0696174" lon="7.7210038"><ele>220.0</ele><time>2026-04-18T11:03:29.968Z</time></trkpt><trkpt lat="45.0696056" lon="7.7209105"><ele>220.0</ele><time>2026-04-18T11:03:34.957Z</time></trkpt><trkpt lat="45.0695887" lon="7.7208126"><ele>219.99999999999997</ele><time>2026-04-18T11:03:39.875Z</time></trkpt><trkpt lat="45.06958" lon="7.720717"><ele>220.0</ele><time>2026-04-18T11:03:43.955Z</time></trkpt><trkpt lat="45.0695662" lon="7.7206199"><ele>220.14285714285714</ele><time>2026-04-18T11:03:48.96Z</time></trkpt><trkpt lat="45.0695515" lon="7.7205171"><ele>220.28571428571428</ele><time>2026-04-18T11:03:54.957Z</time></trkpt><trkpt lat="45.0695447" lon="7.7204202"><ele>220.42857142857144</ele><time>2026-04-18T11:03:59.954Z</time></trkpt><trkpt lat="45.0695352" lon="7.7203143"><ele>220.57142857142856</ele><time>2026-04-18T11:04:05.955Z</time></trkpt><trkpt lat="45.0695227" lon="7.7202076"><ele>220.71428571428572</ele><time>2026-04-18T11:04:11.87Z</time></trkpt><trkpt lat="45.0695012" lon="7.7201168"><ele>220.85714285714286</ele><time>2026-04-18T11:04:15.957Z</time></trkpt><trkpt lat="45.0694934" lon="7.7200186"><ele>221.0</ele><time>2026-04-18T11:04:21.953Z</time></trkpt><trkpt lat="45.0694793" lon="7.7199241"><ele>221.14285714285717</ele><time>2026-04-18T11:04:26.021Z</time></trkpt><trkpt lat="45.0694659" lon="7.7198294"><ele>221.28571428571428</ele><time>2026-04-18T11:04:31.895Z</time></trkpt><trkpt lat="45.0694612" lon="7.7197368"><ele>221.42857142857144</ele><time>2026-04-18T11:04:35.952Z</time></trkpt><trkpt lat="45.0694525" lon="7.7196374"><ele>221.57142857142858</ele><time>2026-04-18T11:04:41.016Z</time></trkpt><trkpt lat="45.0694404" lon="7.7195455"><ele>221.71428571428572</ele><time>2026-04-18T11:04:45.956Z</time></trkpt><trkpt lat="45.0694248" lon="7.7194557"><ele>221.85714285714286</ele><time>2026-04-18T11:04:50.955Z</time></trkpt><trkpt lat="45.0694087" lon="7.7193634"><ele>222.0</ele><time>2026-04-18T11:04:56.005Z</time></trkpt><trkpt lat="45.0693919" lon="7.7192673"><ele>222.0</ele><time>2026-04-18T11:05:00.994Z</time></trkpt><trkpt lat="45.0693812" lon="7.7191782"><ele>222.0</ele><time>2026-04-18T11:05:05.861Z</time></trkpt><trkpt lat="45.069363" lon="7.719081"><ele>222.0</ele><time>2026-04-18T11:05:12.022Z</time></trkpt><trkpt lat="45.0693556" lon="7.7189872"><ele>222.0</ele><time>2026-04-18T11:05:16.956Z</time></trkpt><trkpt lat="45.06935" lon="7.7188829"><ele>222.0</ele><time>2026-04-18T11:05:22.016Z</time></trkpt><trkpt lat="45.0693388" lon="7.7187855"><ele>222.0</ele><time>2026-04-18T11:05:27.021Z</time></trkpt><trkpt lat="45.0693287" lon="7.7186807"><ele>222.0</ele><time>2026-04-18T11:05:32.955Z</time></trkpt><trkpt lat="45.069317" lon="7.7185781"><ele>222.28571428571428</ele><time>2026-04-18T11:05:38.955Z</time></trkpt><trkpt lat="45.0693042" lon="7.7184794"><ele>222.57142857142858</ele><time>2026-04-18T11:05:44.018Z</time></trkpt><trkpt lat="45.0692888" lon="7.7183924"><ele>222.85714285714286</ele><time>2026-04-18T11:05:47.961Z</time></trkpt><trkpt lat="45.0692821" lon="7.7182996"><ele>223.14285714285714</ele><time>2026-04-18T11:05:52.968Z</time></trkpt><trkpt lat="45.0692379" lon="7.7182246"><ele>223.42857142857144</ele><time>2026-04-18T11:06:00.968Z</time></trkpt><trkpt lat="45.0692349" lon="7.7181067"><ele>223.71428571428572</ele><time>2026-04-18T11:06:05.973Z</time></trkpt><trkpt lat="45.0692355" lon="7.7180133"><ele>224.0</ele><time>2026-04-18T11:06:10.956Z</time></trkpt><trkpt lat="45.069233" lon="7.7179223"><ele>224.0</ele><time>2026-04-18T11:06:16.017Z</time></trkpt><trkpt lat="45.0692342" lon="7.7178294"><ele>224.0</ele><time>2026-04-18T11:06:20.988Z</time></trkpt><trkpt lat="45.0692206" lon="7.7177285"><ele>224.0</ele><time>2026-04-18T11:06:26.954Z</time></trkpt><trkpt lat="45.0692073" lon="7.7176334"><ele>224.0</ele><time>2026-04-18T11:06:31.956Z</time></trkpt><trkpt lat="45.0691959" lon="7.7175428"><ele>224.0</ele><time>2026-04-18T11:06:36.956Z</time></trkpt><trkpt lat="45.0691851" lon="7.7174513"><ele>224.0</ele><time>2026-04-18T11:06:41.956Z</time></trkpt><trkpt lat="45.0691701" lon="7.7173588"><ele>224.0</ele><time>2026-04-18T11:06:46.974Z</time></trkpt><trkpt lat="45.0691585" lon="7.7172691"><ele>224.33333333333334</ele><time>2026-04-18T11:06:51.956Z</time></trkpt><trkpt lat="45.0691422" lon="7.7171679"><ele>224.66666666666669</ele><time>2026-04-18T11:06:57.955Z</time></trkpt><trkpt lat="45.0691353" lon="7.7170752"><ele>225.0</ele><time>2026-04-18T11:07:02.953Z</time></trkpt><trkpt lat="45.0691419" lon="7.7169815"><ele>225.33333333333331</ele><time>2026-04-18T11:07:08.958Z</time></trkpt><trkpt lat="45.0691895" lon="7.7170563"><ele>225.66666666666666</ele><time>2026-04-18T11:07:14.989Z</time></trkpt><trkpt lat="45.0691846" lon="7.7172275"><ele>226.0</ele><time>2026-04-18T11:07:26.954Z</time></trkpt><trkpt lat="45.0691889" lon="7.7173326"><ele>226.0</ele><time>2026-04-18T11:07:29.955Z</time></trkpt><trkpt lat="45.0692024" lon="7.7174255"><ele>226.0</ele><time>2026-04-18T11:07:34.969Z</time></trkpt><trkpt lat="45.0692159" lon="7.7175167"><ele>226.0</ele><time>2026-04-18T11:07:39.858Z</time></trkpt><trkpt lat="45.0692445" lon="7.7176068"><ele>226.0</ele><time>2026-04-18T11:07:45.99Z</time></trkpt><trkpt lat="45.0693031" lon="7.7176637"><ele>226.0</ele><time>2026-04-18T11:07:51.955Z</time></trkpt><trkpt lat="45.0693119" lon="7.7177624"><ele>226.0</ele><time>2026-04-18T11:07:57.954Z</time></trkpt><trkpt lat="45.0693182" lon="7.7178634"><ele>226.0</ele><time>2026-04-18T11:08:04.989Z</time></trkpt><trkpt lat="45.0693256" lon="7.7179636"><ele>225.71428571428572</ele><time>2026-04-18T11:08:10.957Z</time></trkpt><trkpt lat="45.0693436" lon="7.7180693"><ele>225.42857142857142</ele><time>2026-04-18T11:08:17.959Z</time></trkpt><trkpt lat="45.0693579" lon="7.7181684"><ele>225.14285714285714</ele><time>2026-04-18T11:08:24.954Z</time></trkpt><trkpt lat="45.0693713" lon="7.718259"><ele>224.85714285714286</ele><time>2026-04-18T11:08:29.952Z</time></trkpt><trkpt lat="45.0693838" lon="7.71835"><ele>224.57142857142856</ele><time>2026-04-18T11:08:33.953Z</time></trkpt><trkpt lat="45.0693942" lon="7.7184568"><ele>224.28571428571428</ele><time>2026-04-18T11:08:38.954Z</time></trkpt><trkpt lat="45.0694034" lon="7.7185526"><ele>224.0</ele><time>2026-04-18T11:08:43.956Z</time></trkpt><trkpt lat="45.069421" lon="7.7186384"><ele>223.71428571428572</ele><time>2026-04-18T11:08:48.954Z</time></trkpt><trkpt lat="45.0694355" lon="7.718749"><ele>223.42857142857144</ele><time>2026-04-18T11:08:54.952Z</time></trkpt><trkpt lat="45.0694478" lon="7.7188453"><ele>223.14285714285714</ele><time>2026-04-18T11:08:59.953Z</time></trkpt><trkpt lat="45.0694611" lon="7.718947"><ele>222.85714285714286</ele><time>2026-04-18T11:09:04.954Z</time></trkpt><trkpt lat="45.0694781" lon="7.7190449"><ele>222.57142857142858</ele><time>2026-04-18T11:09:10.958Z</time></trkpt><trkpt lat="45.0694961" lon="7.7191388"><ele>222.28571428571428</ele><time>2026-04-18T11:09:16.954Z</time></trkpt><trkpt lat="45.0695175" lon="7.7192332"><ele>222.0</ele><time>2026-04-18T11:09:22.96Z</time></trkpt><trkpt lat="45.0695311" lon="7.7193385"><ele>222.0</ele><time>2026-04-18T11:09:28.96Z</time></trkpt><trkpt lat="45.0695405" lon="7.7194271"><ele>222.0</ele><time>2026-04-18T11:09:33.956Z</time></trkpt><trkpt lat="45.0695304" lon="7.7195288"><ele>222.0</ele><time>2026-04-18T11:09:38.956Z</time></trkpt><trkpt lat="45.069585" lon="7.7195882"><ele>222.0</ele><time>2026-04-18T11:09:47.953Z</time></trkpt><trkpt lat="45.0695457" lon="7.7196605"><ele>222.0</ele><time>2026-04-18T11:10:00.957Z</time></trkpt><trkpt lat="45.0695302" lon="7.719759"><ele>222.0</ele><time>2026-04-18T11:10:06.959Z</time></trkpt><trkpt lat="45.0695069" lon="7.7198562"><ele>222.0</ele><time>2026-04-18T11:10:13.965Z</time></trkpt><trkpt lat="45.069513" lon="7.7199497"><ele>222.0</ele><time>2026-04-18T11:10:19.959Z</time></trkpt><trkpt lat="45.0695413" lon="7.7200342"><ele>222.0</ele><time>2026-04-18T11:10:27.433Z</time></trkpt><trkpt lat="45.0695261" lon="7.7201226"><ele>222.0</ele><time>2026-04-18T11:10:32.875Z</time></trkpt><trkpt lat="45.0695595" lon="7.7202125"><ele>222.0</ele><time>2026-04-18T11:10:39.958Z</time></trkpt><trkpt lat="45.0696258" lon="7.7201996"><ele>222.0</ele><time>2026-04-18T11:11:20.955Z</time></trkpt><trkpt lat="45.0696906" lon="7.7201666"><ele>222.0</ele><time>2026-04-18T11:11:26.876Z</time></trkpt><trkpt lat="45.0697501" lon="7.7201343"><ele>222.0</ele><time>2026-04-18T11:11:31.961Z</time></trkpt><trkpt lat="45.0698106" lon="7.7200856"><ele>222.0</ele><time>2026-04-18T11:11:38.899Z</time></trkpt><trkpt lat="45.0698732" lon="7.720071"><ele>222.0</ele><time>2026-04-18T11:12:02.952Z</time></trkpt><trkpt lat="45.0699427" lon="7.7200964"><ele>222.0</ele><time>2026-04-18T11:12:08.971Z</time></trkpt><trkpt lat="45.0700161" lon="7.7200598"><ele>222.0</ele><time>2026-04-18T11:12:13.955Z</time></trkpt><trkpt lat="45.0700837" lon="7.720066"><ele>222.0</ele><time>2026-04-18T11:12:19.9Z</time></trkpt><trkpt lat="45.0701501" lon="7.7200399"><ele>222.0</ele><time>2026-04-18T11:12:25.952Z</time></trkpt><trkpt lat="45.0702065" lon="7.7199961"><ele>222.0</ele><time>2026-04-18T11:12:30.959Z</time></trkpt><trkpt lat="45.0702678" lon="7.7199459"><ele>222.14285714285714</ele><time>2026-04-18T11:12:37.866Z</time></trkpt><trkpt lat="45.0703213" lon="7.7198903"><ele>222.2857142857143</ele><time>2026-04-18T11:12:58.933Z</time></trkpt><trkpt lat="45.0703586" lon="7.7198115"><ele>222.42857142857144</ele><time>2026-04-18T11:13:04.954Z</time></trkpt><trkpt lat="45.070409" lon="7.7197418"><ele>222.57142857142856</ele><time>2026-04-18T11:13:10.952Z</time></trkpt><trkpt lat="45.0704942" lon="7.719767"><ele>222.71428571428572</ele><time>2026-04-18T11:13:13.956Z</time></trkpt><trkpt lat="45.070558" lon="7.7198293"><ele>222.85714285714286</ele><time>2026-04-18T11:13:14.957Z</time></trkpt><trkpt lat="45.0706235" lon="7.7198263"><ele>223.0</ele><time>2026-04-18T11:13:18.957Z</time></trkpt><trkpt lat="45.0706849" lon="7.7197976"><ele>223.0</ele><time>2026-04-18T11:13:23.881Z</time></trkpt><trkpt lat="45.0707581" lon="7.7197709"><ele>223.0</ele><time>2026-04-18T11:13:29.954Z</time></trkpt><trkpt lat="45.0708298" lon="7.7197642"><ele>219.0</ele><time>2026-04-18T11:13:36.962Z</time></trkpt><trkpt lat="45.0708877" lon="7.7197221"><ele>219.0</ele><time>2026-04-18T11:13:42.953Z</time></trkpt></trkseg></trk></gpx>